Observation data for Dell City 1N on 06/21/2019      Previous  Date  Next       Current Mesonet Observations  Soil Data  Daily Summary Page  Observations in Plain Language
KDC1 210500Z 26008KT 23/M04 A2988 RMK A01 T02331037  RH  016%=      5-min Rain = 0
KDC1 210501Z 27008KT 23/M04 A2988 RMK A01 T02331037  RH  016%=      5-min Rain = 0
KDC1 210502Z 27008KT 23/M04 A2988 RMK A01 T02341036  RH  016%=      5-min Rain = 0
KDC1 210503Z 27008KT 23/M04 A2988 RMK A01 T02341035  RH  016%=      5-min Rain = 0
KDC1 210504Z 27008KT 23/M03 A2988 RMK A01 T02341033  RH  017%=      5-min Rain = 0
KDC1 210505Z 26008KT 24/M03 A2988 RMK A01 T02351032  RH  017%=      5-min Rain = 0
KDC1 210506Z 26008KT 24/M03 A2988 RMK A01 T02351034  RH  016%=      5-min Rain = 0
KDC1 210507Z 25007KT 24/M04 A2988 RMK A01 T02381041  RH  015%=      5-min Rain = 0
KDC1 210508Z 26007KT 24/M04 A2988 RMK A01 T02421038  RH  015%=      5-min Rain = 0
KDC1 210509Z 26006KT 24/M03 A2988 RMK A01 T02431025  RH  017%=      5-min Rain = 0
KDC1 210510Z 26006KT 24/M02 A2988 RMK A01 T02411016  RH  018%=      5-min Rain = 0
KDC1 210511Z 26006KT 24/M02 A2988 RMK A01 T02381015  RH  019%=      5-min Rain = 0
KDC1 210512Z 26007KT 24/M02 A2988 RMK A01 T02371015  RH  019%=      5-min Rain = 0
KDC1 210513Z 26008KT 24/M01 A2988 RMK A01 T02361014  RH  019%=      5-min Rain = 0
KDC1 210514Z 26008KT 24/M02 A2988 RMK A01 T02351021  RH  018%=      5-min Rain = 0
KDC1 210515Z 25006KT 24/M02 A2988 RMK A01 T02351021  RH  018%=      5-min Rain = 0
KDC1 210516Z 26006KT 24/M02 A2988 RMK A01 T02351015  RH  019%=      5-min Rain = 0
KDC1 210517Z 26006KT 23/M01 A2988 RMK A01 T02331011  RH  020%=      5-min Rain = 0
KDC1 210518Z 26007KT 23/M01 A2988 RMK A01 T02311011  RH  020%=      5-min Rain = 0
KDC1 210519Z 26007KT 23/M01 A2988 RMK A01 T02301014  RH  020%=      5-min Rain = 0
KDC1 210520Z 26007KT 23/M02 A2988 RMK A01 T02291015  RH  020%=      5-min Rain = 0
KDC1 210521Z 28006KT 23/M01 A2988 RMK A01 T02281008  RH  021%=      5-min Rain = 0
KDC1 210522Z 30003KT 22/M01 A2988 RMK A01 T02241012  RH  021%=      5-min Rain = 0
KDC1 210523Z 26004KT 22/M02 A2988 RMK A01 T02201018  RH  020%=      5-min Rain = 0
KDC1 210524Z 26005KT 22/M02 A2988 RMK A01 T02181019  RH  020%=      5-min Rain = 0
KDC1 210525Z 27005KT 22/M02 A2988 RMK A01 T02171020  RH  020%=      5-min Rain = 0
KDC1 210526Z 29002KT 22/M02 A2988 RMK A01 T02161019  RH  021%=      5-min Rain = 0
KDC1 210527Z 04002KT 22/M02 A2989 RMK A01 T02151017  RH  021%=      5-min Rain = 0
KDC1 210528Z 08003KT 21/M01 A2989 RMK A01 T02111006  RH  023%=      5-min Rain = 0
KDC1 210529Z 10003KT 21/02 A2989 RMK A01 T02080015  RH  028%=      5-min Rain = 0
KDC1 210530Z 12003KT 21/03 A2989 RMK A01 T02050029  RH  031%=      5-min Rain = 0
KDC1 210531Z 12003KT 20/02 A2989 RMK A01 T02020023  RH  031%=      5-min Rain = 0
KDC1 210532Z 10002KT 20/01 A2989 RMK A01 T02010007  RH  027%=      5-min Rain = 0
KDC1 210533Z 09002KT 20/02 A2989 RMK A01 T02030022  RH  030%=      5-min Rain = 0
KDC1 210534Z 10002KT 21/00 A2989 RMK A01 T02050002  RH  026%=      5-min Rain = 0
KDC1 210535Z 11002KT 21/M00 A2989 RMK A01 T02091003  RH  024%=      5-min Rain = 0
KDC1 210536Z 10004KT 21/02 A2989 RMK A01 T02110015  RH  027%=      5-min Rain = 0
KDC1 210537Z 11004KT 21/02 A2989 RMK A01 T02060020  RH  029%=      5-min Rain = 0
KDC1 210538Z 12005KT 20/02 A2989 RMK A01 T02000019  RH  030%=      5-min Rain = 0
KDC1 210539Z 13005KT 20/02 A2989 RMK A01 T01960023  RH  032%=      5-min Rain = 0
KDC1 210540Z 12004KT 19/02 A2989 RMK A01 T01920023  RH  032%=      5-min Rain = 0
KDC1 210541Z 12004KT 19/03 A2989 RMK A01 T01890026  RH  034%=      5-min Rain = 0
KDC1 210542Z 11004KT 19/02 A2989 RMK A01 T01870024  RH  034%=      5-min Rain = 0
KDC1 210543Z 11003KT 19/02 A2989 RMK A01 T01860015  RH  032%=      5-min Rain = 0
KDC1 210544Z 12003KT 19/01 A2989 RMK A01 T01870013  RH  031%=      5-min Rain = 0
KDC1 210545Z 10002KT 19/01 A2989 RMK A01 T01880010  RH  030%=      5-min Rain = 0
KDC1 210546Z 07002KT 19/01 A2989 RMK A01 T01890012  RH  030%=      5-min Rain = 0
KDC1 210547Z 10002KT 19/01 A2989 RMK A01 T01890011  RH  030%=      5-min Rain = 0
KDC1 210548Z 13003KT 19/01 A2989 RMK A01 T01890010  RH  030%=      5-min Rain = 0
KDC1 210549Z 14004KT 19/01 A2989 RMK A01 T01890011  RH  030%=      5-min Rain = 0
KDC1 210550Z 15003KT 19/01 A2989 RMK A01 T01890013  RH  031%=      5-min Rain = 0
KDC1 210551Z 14003KT 19/01 A2989 RMK A01 T01880012  RH  031%=      5-min Rain = 0
KDC1 210552Z 12003KT 19/02 A2989 RMK A01 T01870020  RH  033%=      5-min Rain = 0
KDC1 210553Z 10002KT 19/03 A2989 RMK A01 T01860026  RH  034%=      5-min Rain = 0
KDC1 210554Z 09002KT 19/02 A2989 RMK A01 T01860020  RH  033%=      5-min Rain = 0
KDC1 210555Z 11002KT 19/01 A2989 RMK A01 T01860011  RH  031%=      5-min Rain = 0
KDC1 210556Z 13002KT 19/01 A2989 RMK A01 T01870009  RH  030%=      5-min Rain = 0
KDC1 210557Z 13003KT 19/01 A2989 RMK A01 T01880011  RH  031%=      5-min Rain = 0
KDC1 210558Z 15003KT 19/02 A2989 RMK A01 T01880018  RH  032%=      5-min Rain = 0
KDC1 210559Z 16003KT 19/01 A2989 RMK A01 T01870011  RH  031%=      5-min Rain = 0
KDC1 210600Z 16002KT 19/01 A2989 RMK A01 T01860007  RH  030%=      5-min Rain = 0
KDC1 210601Z 17002KT 19/00 A2989 RMK A01 T01870004  RH  029%=      5-min Rain = 0
KDC1 210602Z 18001KT 19/00 A2989 RMK A01 T01870004  RH  029%=      5-min Rain = 0
KDC1 210603Z 18000KT 19/01 A2989 RMK A01 T01870007  RH  030%=      5-min Rain = 0
KDC1 210604Z 13001KT 19/01 A2989 RMK A01 T01860010  RH  031%=      5-min Rain = 0
KDC1 210605Z 17001KT 19/01 A2989 RMK A01 T01850010  RH  031%=      5-min Rain = 0
KDC1 210606Z 17001KT 19/01 A2989 RMK A01 T01850010  RH  031%=      5-min Rain = 0
KDC1 210607Z 00000KT 19/01 A2989 RMK A01 T01850009  RH  031%=      5-min Rain = 0
KDC1 210608Z 00000KT 19/00 A2989 RMK A01 T01850004  RH  030%=      5-min Rain = 0
KDC1 210609Z 15001KT 19/00 A2989 RMK A01 T01850004  RH  030%=      5-min Rain = 0
KDC1 210610Z 16002KT 19/00 A2989 RMK A01 T01850004  RH  030%=      5-min Rain = 0
KDC1 210611Z 16002KT 19/00 A2989 RMK A01 T01860003  RH  029%=      5-min Rain = 0
KDC1 210612Z 15000KT 19/00 A2989 RMK A01 T01870004  RH  029%=      5-min Rain = 0
KDC1 210613Z 00000KT 19/00 A2989 RMK A01 T01870004  RH  029%=      5-min Rain = 0
KDC1 210614Z 19000KT 19/01 A2989 RMK A01 T01870007  RH  030%=      5-min Rain = 0
KDC1 210615Z 26000KT 19/01 A2989 RMK A01 T01850010  RH  031%=      5-min Rain = 0
KDC1 210616Z 25000KT 18/01 A2989 RMK A01 T01840005  RH  030%=      5-min Rain = 0
KDC1 210617Z 00000KT 18/01 A2989 RMK A01 T01840008  RH  030%=      5-min Rain = 0
KDC1 210618Z 21001KT 19/01 A2989 RMK A01 T01850008  RH  030%=      5-min Rain = 0
KDC1 210619Z 21001KT 19/01 A2989 RMK A01 T01850008  RH  030%=      5-min Rain = 0
KDC1 210620Z 20001KT 18/01 A2989 RMK A01 T01840009  RH  031%=      5-min Rain = 0
KDC1 210621Z 19001KT 18/01 A2989 RMK A01 T01840007  RH  030%=      5-min Rain = 0
KDC1 210622Z 20001KT 18/01 A2989 RMK A01 T01840009  RH  031%=      5-min Rain = 0
KDC1 210623Z 20001KT 18/01 A2989 RMK A01 T01840007  RH  030%=      5-min Rain = 0
KDC1 210624Z 20001KT 19/01 A2989 RMK A01 T01860008  RH  030%=      5-min Rain = 0
KDC1 210625Z 19002KT 19/01 A2989 RMK A01 T01870011  RH  031%=      5-min Rain = 0
KDC1 210626Z 19002KT 19/01 A2989 RMK A01 T01870008  RH  030%=      5-min Rain = 0
KDC1 210627Z 19002KT 19/01 A2989 RMK A01 T01870005  RH  029%=      5-min Rain = 0
KDC1 210628Z 21002KT 19/M00 A2989 RMK A01 T01871001  RH  028%=      5-min Rain = 0
KDC1 210629Z 22001KT 19/M00 A2989 RMK A01 T01881004  RH  027%=      5-min Rain = 0
KDC1 210630Z 24001KT 19/00 A2989 RMK A01 T01880001  RH  028%=      5-min Rain = 0
KDC1 210631Z 24001KT 19/01 A2988 RMK A01 T01870009  RH  030%=      5-min Rain = 0
KDC1 210632Z 22001KT 19/01 A2988 RMK A01 T01870012  RH  031%=      5-min Rain = 0
KDC1 210633Z 21001KT 19/01 A2988 RMK A01 T01860014  RH  032%=      5-min Rain = 0
KDC1 210634Z 21000KT 19/02 A2988 RMK A01 T01860017  RH  032%=      5-min Rain = 0
KDC1 210635Z 25000KT 19/02 A2988 RMK A01 T01850019  RH  033%=      5-min Rain = 0
KDC1 210636Z 25000KT 18/02 A2988 RMK A01 T01810019  RH  034%=      5-min Rain = 0
KDC1 210637Z 25000KT 18/01 A2988 RMK A01 T01820013  RH  032%=      5-min Rain = 0
KDC1 210638Z 29000KT 18/01 A2988 RMK A01 T01840014  RH  032%=      5-min Rain = 0
KDC1 210639Z 29001KT 19/02 A2988 RMK A01 T01850018  RH  033%=      5-min Rain = 0
KDC1 210640Z 27002KT 18/02 A2988 RMK A01 T01840021  RH  033%=      5-min Rain = 0
KDC1 210641Z 27002KT 18/02 A2988 RMK A01 T01830022  RH  034%=      5-min Rain = 0
KDC1 210642Z 27002KT 18/02 A2988 RMK A01 T01810023  RH  035%=      5-min Rain = 0
KDC1 210643Z 27002KT 18/02 A2988 RMK A01 T01790023  RH  035%=      5-min Rain = 0
KDC1 210644Z 27002KT 18/02 A2988 RMK A01 T01780022  RH  035%=      5-min Rain = 0
KDC1 210645Z 28001KT 18/02 A2988 RMK A01 T01780022  RH  035%=      5-min Rain = 0
KDC1 210646Z 27001KT 18/02 A2988 RMK A01 T01770021  RH  035%=      5-min Rain = 0
KDC1 210647Z 27001KT 18/02 A2988 RMK A01 T01770020  RH  035%=      5-min Rain = 0
KDC1 210648Z 26001KT 18/02 A2988 RMK A01 T01780019  RH  034%=      5-min Rain = 0
KDC1 210649Z 26000KT 18/02 A2988 RMK A01 T01780018  RH  034%=      5-min Rain = 0
KDC1 210650Z 31000KT 18/02 A2988 RMK A01 T01790019  RH  034%=      5-min Rain = 0
KDC1 210651Z 00000KT 18/02 A2988 RMK A01 T01790020  RH  035%=      5-min Rain = 0
KDC1 210652Z 00000KT 18/02 A2988 RMK A01 T01790021  RH  035%=      5-min Rain = 0
KDC1 210653Z 33001KT 18/02 A2988 RMK A01 T01790021  RH  035%=      5-min Rain = 0
KDC1 210654Z 35002KT 18/02 A2988 RMK A01 T01790022  RH  035%=      5-min Rain = 0
KDC1 210655Z 33001KT 18/02 A2988 RMK A01 T01790024  RH  035%=      5-min Rain = 0
KDC1 210656Z 32000KT 18/03 A2988 RMK A01 T01790025  RH  036%=      5-min Rain = 0
KDC1 210657Z 32001KT 18/03 A2988 RMK A01 T01790026  RH  036%=      5-min Rain = 0
KDC1 210658Z 36003KT 18/03 A2988 RMK A01 T01790027  RH  036%=      5-min Rain = 0
KDC1 210659Z 35002KT 18/03 A2988 RMK A01 T01780027  RH  036%=      5-min Rain = 0
KDC1 210700Z 35001KT 18/03 A2988 RMK A01 T01780025  RH  036%=      5-min Rain = 0
KDC1 210701Z 35001KT 18/02 A2988 RMK A01 T01770023  RH  036%=      5-min Rain = 0
KDC1 210702Z 00001KT 18/02 A2988 RMK A01 T01770021  RH  035%=      5-min Rain = 0
KDC1 210703Z 00000KT 18/02 A2988 RMK A01 T01770017  RH  034%=      5-min Rain = 0
KDC1 210704Z 00000KT 18/02 A2988 RMK A01 T01790015  RH  033%=      5-min Rain = 0
KDC1 210705Z 35000KT 18/01 A2988 RMK A01 T01810014  RH  033%=      5-min Rain = 0
KDC1 210706Z 34001KT 18/01 A2988 RMK A01 T01830014  RH  032%=      5-min Rain = 0
KDC1 210707Z 35001KT 18/02 A2988 RMK A01 T01840019  RH  033%=      5-min Rain = 0
KDC1 210708Z 35001KT 19/02 A2988 RMK A01 T01850021  RH  034%=      5-min Rain = 0
KDC1 210709Z 32001KT 19/03 A2988 RMK A01 T01850026  RH  035%=      5-min Rain = 0
KDC1 210710Z 31001KT 18/03 A2988 RMK A01 T01840031  RH  036%=      5-min Rain = 0
KDC1 210711Z 33000KT 18/03 A2988 RMK A01 T01830030  RH  036%=      5-min Rain = 0
KDC1 210712Z 33001KT 18/03 A2988 RMK A01 T01830027  RH  035%=      5-min Rain = 0
KDC1 210713Z 34001KT 18/02 A2988 RMK A01 T01830021  RH  034%=      5-min Rain = 0
KDC1 210714Z 00002KT 18/02 A2988 RMK A01 T01840016  RH  032%=      5-min Rain = 0
KDC1 210715Z 36002KT 19/03 A2988 RMK A01 T01860029  RH  035%=      5-min Rain = 0
KDC1 210716Z 35003KT 19/03 A2988 RMK A01 T01850033  RH  036%=      5-min Rain = 0
KDC1 210717Z 35003KT 18/03 A2989 RMK A01 T01830030  RH  036%=      5-min Rain = 0
KDC1 210718Z 00004KT 18/03 A2989 RMK A01 T01800028  RH  036%=      5-min Rain = 0
KDC1 210719Z 00004KT 18/03 A2989 RMK A01 T01780027  RH  036%=      5-min Rain = 0
KDC1 210720Z 00004KT 18/03 A2989 RMK A01 T01770027  RH  037%=      5-min Rain = 0
KDC1 210721Z 36004KT 18/03 A2989 RMK A01 T01770027  RH  037%=      5-min Rain = 0
KDC1 210722Z 36004KT 18/03 A2989 RMK A01 T01760025  RH  036%=      5-min Rain = 0
KDC1 210723Z 36004KT 18/02 A2989 RMK A01 T01760020  RH  035%=      5-min Rain = 0
KDC1 210724Z 35004KT 18/02 A2989 RMK A01 T01770020  RH  035%=      5-min Rain = 0
KDC1 210725Z 35004KT 18/02 A2989 RMK A01 T01780022  RH  035%=      5-min Rain = 0
KDC1 210726Z 35005KT 18/03 A2989 RMK A01 T01780025  RH  036%=      5-min Rain = 0
KDC1 210727Z 35004KT 18/03 A2989 RMK A01 T01780028  RH  037%=      5-min Rain = 0
KDC1 210728Z 36004KT 18/03 A2988 RMK A01 T01770028  RH  037%=      5-min Rain = 0
KDC1 210729Z 36005KT 18/03 A2988 RMK A01 T01760025  RH  036%=      5-min Rain = 0
KDC1 210730Z 35005KT 18/02 A2989 RMK A01 T01760023  RH  036%=      5-min Rain = 0
KDC1 210731Z 35005KT 18/02 A2989 RMK A01 T01750024  RH  036%=      5-min Rain = 0
KDC1 210732Z 36005KT 18/02 A2989 RMK A01 T01750020  RH  035%=      5-min Rain = 0
KDC1 210733Z 36004KT 18/02 A2988 RMK A01 T01750018  RH  035%=      5-min Rain = 0
KDC1 210734Z 00003KT 17/01 A2988 RMK A01 T01740014  RH  034%=      5-min Rain = 0
KDC1 210735Z 02003KT 17/01 A2989 RMK A01 T01740013  RH  034%=      5-min Rain = 0
KDC1 210736Z 03003KT 17/01 A2989 RMK A01 T01740011  RH  033%=      5-min Rain = 0
KDC1 210737Z 05002KT 17/01 A2989 RMK A01 T01740009  RH  033%=      5-min Rain = 0
KDC1 210738Z 06002KT 18/01 A2989 RMK A01 T01750011  RH  033%=      5-min Rain = 0
KDC1 210739Z 06003KT 18/02 A2989 RMK A01 T01760015  RH  034%=      5-min Rain = 0
KDC1 210740Z 05004KT 18/02 A2989 RMK A01 T01760015  RH  034%=      5-min Rain = 0
KDC1 210741Z 05004KT 18/02 A2989 RMK A01 T01750017  RH  035%=      5-min Rain = 0
KDC1 210742Z 05004KT 17/02 A2988 RMK A01 T01730015  RH  035%=      5-min Rain = 0
KDC1 210743Z 05003KT 17/01 A2988 RMK A01 T01710013  RH  034%=      5-min Rain = 0
KDC1 210744Z 05004KT 17/01 A2988 RMK A01 T01690013  RH  035%=      5-min Rain = 0
KDC1 210745Z 03005KT 17/01 A2988 RMK A01 T01680010  RH  034%=      5-min Rain = 0
KDC1 210746Z 02004KT 17/00 A2988 RMK A01 T01680004  RH  033%=      5-min Rain = 0
KDC1 210747Z 02004KT 17/00 A2988 RMK A01 T016800-0  RH  032%=      5-min Rain = 0
KDC1 210748Z 02005KT 17/M00 A2988 RMK A01 T01681003  RH  031%=      5-min Rain = 0
KDC1 210749Z 01004KT 17/M00 A2988 RMK A01 T01681002  RH  032%=      5-min Rain = 0
KDC1 210750Z 01004KT 17/00 A2988 RMK A01 T01690001  RH  032%=      5-min Rain = 0
KDC1 210751Z 01005KT 17/00 A2988 RMK A01 T01680000  RH  032%=      5-min Rain = 0
KDC1 210752Z 01005KT 17/M00 A2988 RMK A01 T01681001  RH  032%=      5-min Rain = 0
KDC1 210753Z 01004KT 17/M00 A2988 RMK A01 T01671001  RH  032%=      5-min Rain = 0
KDC1 210754Z 01003KT 17/M00 A2988 RMK A01 T01671003  RH  032%=      5-min Rain = 0
KDC1 210755Z 00003KT 17/M00 A2988 RMK A01 T01661004  RH  031%=      5-min Rain = 0
KDC1 210756Z 02003KT 17/M01 A2988 RMK A01 T01661008  RH  030%=      5-min Rain = 0
KDC1 210757Z 01003KT 17/M01 A2988 RMK A01 T01661011  RH  030%=      5-min Rain = 0
KDC1 210758Z 01003KT 17/M01 A2988 RMK A01 T01671011  RH  030%=      5-min Rain = 0
KDC1 210759Z 01003KT 17/M01 A2988 RMK A01 T01681011  RH  029%=      5-min Rain = 0
KDC1 210800Z 36001KT 17/M01 A2988 RMK A01 T01681007  RH  030%=      5-min Rain = 0
KDC1 210801Z 01003KT 17/01 A2988 RMK A01 T01680010  RH  034%=      5-min Rain = 0
KDC1 210802Z 02003KT 17/01 A2988 RMK A01 T01670008  RH  034%=      5-min Rain = 0
KDC1 210803Z 36003KT 17/01 A2988 RMK A01 T01670012  RH  035%=      5-min Rain = 0
KDC1 210804Z 01003KT 17/01 A2988 RMK A01 T01660010  RH  035%=      5-min Rain = 0
KDC1 210805Z 02003KT 17/01 A2988 RMK A01 T01650010  RH  035%=      5-min Rain = 0
KDC1 210806Z 36002KT 17/01 A2988 RMK A01 T01650014  RH  036%=      5-min Rain = 0
KDC1 210807Z 01002KT 17/02 A2988 RMK A01 T01650016  RH  037%=      5-min Rain = 0
KDC1 210808Z 01003KT 16/01 A2988 RMK A01 T01640013  RH  036%=      5-min Rain = 0
KDC1 210809Z 36002KT 16/01 A2988 RMK A01 T01640009  RH  035%=      5-min Rain = 0
KDC1 210810Z 35002KT 17/01 A2988 RMK A01 T01650009  RH  035%=      5-min Rain = 0
KDC1 210811Z 35003KT 17/01 A2988 RMK A01 T01660006  RH  034%=      5-min Rain = 0
KDC1 210812Z 34002KT 17/01 A2988 RMK A01 T01670008  RH  034%=      5-min Rain = 0
KDC1 210813Z 01003KT 17/01 A2988 RMK A01 T01660006  RH  034%=      5-min Rain = 0
KDC1 210814Z 01004KT 17/00 A2988 RMK A01 T01660003  RH  033%=      5-min Rain = 0
KDC1 210815Z 00005KT 17/00 A2988 RMK A01 T01660004  RH  033%=      5-min Rain = 0
KDC1 210816Z 01004KT 17/01 A2988 RMK A01 T01650006  RH  034%=      5-min Rain = 0
KDC1 210817Z 01004KT 16/01 A2988 RMK A01 T01640005  RH  034%=      5-min Rain = 0
KDC1 210818Z 01003KT 16/M00 A2988 RMK A01 T01631001  RH  033%=      5-min Rain = 0
KDC1 210819Z 01003KT 16/M01 A2988 RMK A01 T01641005  RH  032%=      5-min Rain = 0
KDC1 210820Z 00003KT 17/M01 A2988 RMK A01 T01661006  RH  031%=      5-min Rain = 0
KDC1 210821Z 01004KT 17/M00 A2988 RMK A01 T01681002  RH  031%=      5-min Rain = 0
KDC1 210822Z 02003KT 17/M01 A2988 RMK A01 T01691006  RH  030%=      5-min Rain = 0
KDC1 210823Z 02004KT 17/M01 A2988 RMK A01 T01701011  RH  029%=      5-min Rain = 0
KDC1 210824Z 02003KT 17/M01 A2988 RMK A01 T01711011  RH  029%=      5-min Rain = 0
KDC1 210825Z 02002KT 17/M01 A2988 RMK A01 T01721010  RH  029%=      5-min Rain = 0
KDC1 210826Z 02000KT 17/M01 A2988 RMK A01 T01721008  RH  029%=      5-min Rain = 0
KDC1 210827Z 01002KT 17/M01 A2988 RMK A01 T01721008  RH  029%=      5-min Rain = 0
KDC1 210828Z 03003KT 17/M01 A2988 RMK A01 T01721007  RH  030%=      5-min Rain = 0
KDC1 210829Z 03004KT 17/M01 A2988 RMK A01 T01711007  RH  030%=      5-min Rain = 0
KDC1 210830Z 03005KT 17/M01 A2988 RMK A01 T01721006  RH  030%=      5-min Rain = 0
KDC1 210831Z 03005KT 17/M00 A2988 RMK A01 T01711002  RH  031%=      5-min Rain = 0
KDC1 210832Z 04005KT 17/00 A2988 RMK A01 T016900-0  RH  032%=      5-min Rain = 0
KDC1 210833Z 03005KT 17/00 A2988 RMK A01 T01670002  RH  033%=      5-min Rain = 0
KDC1 210834Z 02004KT 17/00 A2988 RMK A01 T01660003  RH  033%=      5-min Rain = 0
KDC1 210835Z 03004KT 16/00 A2988 RMK A01 T016400-0  RH  033%=      5-min Rain = 0
KDC1 210836Z 03005KT 16/M00 A2988 RMK A01 T01631003  RH  032%=      5-min Rain = 0
KDC1 210837Z 03005KT 16/00 A2988 RMK A01 T016200-0  RH  033%=      5-min Rain = 0
KDC1 210838Z 04004KT 16/M01 A2988 RMK A01 T01611008  RH  032%=      5-min Rain = 0
KDC1 210839Z 05003KT 16/M01 A2988 RMK A01 T01621013  RH  030%=      5-min Rain = 0
KDC1 210840Z 06003KT 16/M02 A2988 RMK A01 T01631015  RH  030%=      5-min Rain = 0
KDC1 210841Z 06003KT 16/M02 A2988 RMK A01 T01641021  RH  028%=      5-min Rain = 0
KDC1 210842Z 06002KT 17/M02 A2988 RMK A01 T01671021  RH  028%=      5-min Rain = 0
KDC1 210843Z 06002KT 17/M02 A2988 RMK A01 T01681017  RH  028%=      5-min Rain = 0
KDC1 210844Z 03002KT 17/M01 A2988 RMK A01 T01681014  RH  029%=      5-min Rain = 0
KDC1 210845Z 34003KT 17/M02 A2988 RMK A01 T01661015  RH  029%=      5-min Rain = 0
KDC1 210846Z 00002KT 17/M02 A2988 RMK A01 T01651017  RH  029%=      5-min Rain = 0
KDC1 210847Z 03001KT 17/M02 A2988 RMK A01 T01651023  RH  028%=      5-min Rain = 0
KDC1 210848Z 35002KT 17/M02 A2988 RMK A01 T01671024  RH  027%=      5-min Rain = 0
KDC1 210849Z 35002KT 17/M01 A2988 RMK A01 T01691012  RH  029%=      5-min Rain = 0
KDC1 210850Z 03001KT 17/M01 A2988 RMK A01 T01691014  RH  029%=      5-min Rain = 0
KDC1 210851Z 31002KT 17/M01 A2988 RMK A01 T01701012  RH  029%=      5-min Rain = 0
KDC1 210852Z 32001KT 17/M01 A2988 RMK A01 T01691014  RH  029%=      5-min Rain = 0
KDC1 210853Z 30001KT 17/M02 A2988 RMK A01 T01691016  RH  028%=      5-min Rain = 0
KDC1 210854Z 36002KT 17/M01 A2988 RMK A01 T01691013  RH  029%=      5-min Rain = 0
KDC1 210855Z 34001KT 17/M01 A2988 RMK A01 T01691014  RH  029%=      5-min Rain = 0
KDC1 210856Z 33002KT 17/M01 A2988 RMK A01 T01681013  RH  029%=      5-min Rain = 0
KDC1 210857Z 33002KT 17/M01 A2988 RMK A01 T01671014  RH  029%=      5-min Rain = 0
KDC1 210858Z 33002KT 17/M01 A2988 RMK A01 T01661014  RH  029%=      5-min Rain = 0
KDC1 210859Z 34002KT 17/M02 A2988 RMK A01 T01661016  RH  029%=      5-min Rain = 0
KDC1 210900Z 35002KT 17/M02 A2988 RMK A01 T01671020  RH  028%=      5-min Rain = 0
KDC1 210901Z 34001KT 17/M03 A2988 RMK A01 T01691026  RH  026%=      5-min Rain = 0
KDC1 210902Z 36002KT 17/M02 A2988 RMK A01 T01701019  RH  028%=      5-min Rain = 0
KDC1 210903Z 01002KT 17/M02 A2988 RMK A01 T01701019  RH  028%=      5-min Rain = 0
KDC1 210904Z 34003KT 17/M02 A2988 RMK A01 T01701018  RH  028%=      5-min Rain = 0
KDC1 210905Z 00002KT 17/M02 A2988 RMK A01 T01701018  RH  028%=      5-min Rain = 0
KDC1 210906Z 03002KT 17/M02 A2988 RMK A01 T01701022  RH  027%=      5-min Rain = 0
KDC1 210907Z 05001KT 17/M02 A2988 RMK A01 T01701021  RH  027%=      5-min Rain = 0
KDC1 210908Z 01000KT 17/M02 A2988 RMK A01 T01691020  RH  027%=      5-min Rain = 0
KDC1 210909Z 32000KT 17/M01 A2988 RMK A01 T01691012  RH  029%=      5-min Rain = 0
KDC1 210910Z 35001KT 17/M01 A2988 RMK A01 T01681008  RH  030%=      5-min Rain = 0
KDC1 210911Z 32001KT 17/M02 A2988 RMK A01 T01671015  RH  029%=      5-min Rain = 0
KDC1 210912Z 32001KT 17/M02 A2988 RMK A01 T01661020  RH  028%=      5-min Rain = 0
KDC1 210913Z 35001KT 17/M02 A2988 RMK A01 T01661020  RH  028%=      5-min Rain = 0
KDC1 210914Z 35001KT 17/M02 A2988 RMK A01 T01661020  RH  028%=      5-min Rain = 0
KDC1 210915Z 34001KT 17/M02 A2988 RMK A01 T01661018  RH  028%=      5-min Rain = 0
KDC1 210916Z 00002KT 17/M02 A2988 RMK A01 T01661019  RH  028%=      5-min Rain = 0
KDC1 210917Z 35002KT 17/M02 A2988 RMK A01 T01661017  RH  029%=      5-min Rain = 0
KDC1 210918Z 36002KT 17/M02 A2988 RMK A01 T01651016  RH  029%=      5-min Rain = 0
KDC1 210919Z 01002KT 16/M02 A2988 RMK A01 T01641016  RH  029%=      5-min Rain = 0
KDC1 210920Z 01002KT 16/M02 A2989 RMK A01 T01631017  RH  029%=      5-min Rain = 0
KDC1 210921Z 01001KT 16/M02 A2989 RMK A01 T01631020  RH  028%=      5-min Rain = 0
KDC1 210922Z 02001KT 16/M02 A2989 RMK A01 T01631015  RH  030%=      5-min Rain = 0
KDC1 210923Z 02002KT 16/M02 A2989 RMK A01 T01631018  RH  029%=      5-min Rain = 0
KDC1 210924Z 02003KT 16/M02 A2989 RMK A01 T01631024  RH  028%=      5-min Rain = 0
KDC1 210925Z 03003KT 16/M02 A2989 RMK A01 T01631023  RH  028%=      5-min Rain = 0
KDC1 210926Z 04002KT 16/M03 A2989 RMK A01 T01641028  RH  027%=      5-min Rain = 0
KDC1 210927Z 04002KT 17/M02 A2989 RMK A01 T01651021  RH  028%=      5-min Rain = 0
KDC1 210928Z 04003KT 17/M01 A2989 RMK A01 T01661006  RH  031%=      5-min Rain = 0
KDC1 210929Z 04002KT 17/M01 A2989 RMK A01 T01661014  RH  029%=      5-min Rain = 0
KDC1 210930Z 06001KT 17/M01 A2989 RMK A01 T01651011  RH  030%=      5-min Rain = 0
KDC1 210931Z 06001KT 17/M02 A2989 RMK A01 T01651022  RH  028%=      5-min Rain = 0
KDC1 210932Z 04001KT 17/M03 A2989 RMK A01 T01651025  RH  027%=      5-min Rain = 0
KDC1 210933Z 06001KT 17/M02 A2989 RMK A01 T01651020  RH  028%=      5-min Rain = 0
KDC1 210934Z 06000KT 17/M03 A2989 RMK A01 T01651026  RH  027%=      5-min Rain = 0
KDC1 210935Z 00000KT 17/M02 A2989 RMK A01 T01651022  RH  028%=      5-min Rain = 0
KDC1 210936Z 00000KT 16/M03 A2989 RMK A01 T01641026  RH  027%=      5-min Rain = 0
KDC1 210937Z 00000KT 16/M03 A2989 RMK A01 T01641029  RH  027%=      5-min Rain = 0
KDC1 210938Z 00000KT 16/M03 A2989 RMK A01 T01641034  RH  026%=      5-min Rain = 0
KDC1 210939Z 01001KT 16/M04 A2989 RMK A01 T01641036  RH  025%=      5-min Rain = 0
KDC1 210940Z 35001KT 16/M03 A2989 RMK A01 T01641032  RH  026%=      5-min Rain = 0
KDC1 210941Z 34001KT 16/M03 A2989 RMK A01 T01631029  RH  027%=      5-min Rain = 0
KDC1 210942Z 35001KT 16/M03 A2989 RMK A01 T01631029  RH  027%=      5-min Rain = 0
KDC1 210943Z 35000KT 16/M03 A2989 RMK A01 T01621026  RH  027%=      5-min Rain = 0
KDC1 210944Z 01000KT 16/M03 A2989 RMK A01 T01621028  RH  027%=      5-min Rain = 0
KDC1 210945Z 00001KT 16/M03 A2989 RMK A01 T01621027  RH  027%=      5-min Rain = 0
KDC1 210946Z 35002KT 16/M03 A2989 RMK A01 T01621029  RH  027%=      5-min Rain = 0
KDC1 210947Z 35001KT 16/M01 A2989 RMK A01 T01621013  RH  030%=      5-min Rain = 0
KDC1 210948Z 34002KT 16/M01 A2989 RMK A01 T01601009  RH  031%=      5-min Rain = 0
KDC1 210949Z 35002KT 16/M01 A2989 RMK A01 T01601007  RH  032%=      5-min Rain = 0
KDC1 210950Z 00002KT 16/M01 A2989 RMK A01 T01591007  RH  032%=      5-min Rain = 0
KDC1 210951Z 35002KT 16/M01 A2989 RMK A01 T01591014  RH  030%=      5-min Rain = 0
KDC1 210952Z 34002KT 16/M00 A2989 RMK A01 T01591004  RH  033%=      5-min Rain = 0
KDC1 210953Z 34002KT 16/M01 A2989 RMK A01 T01591006  RH  032%=      5-min Rain = 0
KDC1 210954Z 34002KT 16/01 A2989 RMK A01 T01590009  RH  036%=      5-min Rain = 0
KDC1 210955Z 36002KT 16/M01 A2989 RMK A01 T01591006  RH  032%=      5-min Rain = 0
KDC1 210956Z 35002KT 16/00 A2989 RMK A01 T01590001  RH  034%=      5-min Rain = 0
KDC1 210957Z 34001KT 16/00 A2989 RMK A01 T01580001  RH  034%=      5-min Rain = 0
KDC1 210958Z 30001KT 16/M02 A2989 RMK A01 T01581016  RH  030%=      5-min Rain = 0
KDC1 210959Z 29000KT 16/M02 A2989 RMK A01 T01591023  RH  029%=      5-min Rain = 0
KDC1 211000Z 10000KT 16/M02 A2989 RMK A01 T01591022  RH  029%=      5-min Rain = 0
KDC1 211001Z 10001KT 16/M02 A2989 RMK A01 T01601020  RH  029%=      5-min Rain = 0
KDC1 211002Z 10000KT 16/M01 A299 RMK A01 T01591014  RH  031%=      5-min Rain = 0
KDC1 211003Z 15001KT 16/00 A299 RMK A01 T01570002  RH  035%=      5-min Rain = 0
KDC1 211004Z 14001KT 16/M01 A299 RMK A01 T01551006  RH  033%=      5-min Rain = 0
KDC1 211005Z 12001KT 16/M01 A299 RMK A01 T01551006  RH  033%=      5-min Rain = 0
KDC1 211006Z 10002KT 16/M02 A299 RMK A01 T01551020  RH  030%=      5-min Rain = 0
KDC1 211007Z 09000KT 16/M01 A299 RMK A01 T01551009  RH  033%=      5-min Rain = 0
KDC1 211008Z 16000KT 15/M00 A299 RMK A01 T01541002  RH  035%=      5-min Rain = 0
KDC1 211009Z 00000KT 15/M01 A299 RMK A01 T01521010  RH  033%=      5-min Rain = 0
KDC1 211010Z 13000KT 15/M01 A299 RMK A01 T01511012  RH  033%=      5-min Rain = 0
KDC1 211011Z 13001KT 15/M02 A299 RMK A01 T01501016  RH  032%=      5-min Rain = 0
KDC1 211012Z 12000KT 15/M02 A299 RMK A01 T01521015  RH  032%=      5-min Rain = 0
KDC1 211013Z 13000KT 15/M01 A299 RMK A01 T01531007  RH  033%=      5-min Rain = 0
KDC1 211014Z 16002KT 15/M00 A299 RMK A01 T01521003  RH  035%=      5-min Rain = 0
KDC1 211015Z 16001KT 15/00 A299 RMK A01 T01510002  RH  036%=      5-min Rain = 0
KDC1 211016Z 16001KT 15/M00 A299 RMK A01 T01511001  RH  035%=      5-min Rain = 0
KDC1 211017Z 17001KT 15/M00 A299 RMK A01 T01521002  RH  035%=      5-min Rain = 0
KDC1 211018Z 14001KT 15/00 A299 RMK A01 T01520001  RH  036%=      5-min Rain = 0
KDC1 211019Z 14001KT 15/01 A299 RMK A01 T01520007  RH  037%=      5-min Rain = 0
KDC1 211020Z 16000KT 15/01 A299 RMK A01 T01510008  RH  038%=      5-min Rain = 0
KDC1 211021Z 14001KT 15/01 A299 RMK A01 T01500006  RH  037%=      5-min Rain = 0
KDC1 211022Z 14001KT 15/M01 A299 RMK A01 T01491005  RH  035%=      5-min Rain = 0
KDC1 211023Z 15001KT 15/M00 A299 RMK A01 T01491003  RH  035%=      5-min Rain = 0
KDC1 211024Z 15001KT 15/M01 A299 RMK A01 T01491014  RH  033%=      5-min Rain = 0
KDC1 211025Z 15001KT 15/M01 A299 RMK A01 T01491008  RH  034%=      5-min Rain = 0
KDC1 211026Z 15002KT 15/M01 A299 RMK A01 T01491009  RH  034%=      5-min Rain = 0
KDC1 211027Z 15002KT 15/M01 A299 RMK A01 T01501007  RH  034%=      5-min Rain = 0
KDC1 211028Z 15001KT 15/M01 A299 RMK A01 T01501006  RH  034%=      5-min Rain = 0
KDC1 211029Z 14001KT 15/M00 A299 RMK A01 T01501003  RH  035%=      5-min Rain = 0
KDC1 211030Z 14002KT 15/M01 A299 RMK A01 T01491006  RH  034%=      5-min Rain = 0
KDC1 211031Z 15003KT 15/M00 A299 RMK A01 T01491004  RH  035%=      5-min Rain = 0
KDC1 211032Z 15002KT 15/00 A299 RMK A01 T01500002  RH  036%=      5-min Rain = 0
KDC1 211033Z 13002KT 15/00 A299 RMK A01 T01500004  RH  037%=      5-min Rain = 0
KDC1 211034Z 13003KT 15/M00 A2991 RMK A01 T01521002  RH  035%=      5-min Rain = 0
KDC1 211035Z 14003KT 16/M01 A2991 RMK A01 T01551009  RH  032%=      5-min Rain = 0
KDC1 211036Z 16002KT 16/00 A2991 RMK A01 T01580003  RH  035%=      5-min Rain = 0
KDC1 211037Z 16002KT 16/01 A2991 RMK A01 T01570011  RH  037%=      5-min Rain = 0
KDC1 211038Z 15002KT 16/02 A2991 RMK A01 T01560019  RH  040%=      5-min Rain = 0
KDC1 211039Z 14002KT 15/03 A2991 RMK A01 T01540028  RH  043%=      5-min Rain = 0
KDC1 211040Z 14002KT 15/03 A2991 RMK A01 T01520026  RH  043%=      5-min Rain = 0
KDC1 211041Z 14003KT 15/03 A2991 RMK A01 T01510025  RH  043%=      5-min Rain = 0
KDC1 211042Z 15003KT 15/04 A2991 RMK A01 T01490041  RH  049%=      5-min Rain = 0
KDC1 211043Z 16002KT 15/04 A2991 RMK A01 T01450041  RH  049%=      5-min Rain = 0
KDC1 211044Z 17000KT 14/03 A2991 RMK A01 T01440032  RH  047%=      5-min Rain = 0
KDC1 211045Z 25001KT 14/02 A2991 RMK A01 T01430017  RH  042%=      5-min Rain = 0
KDC1 211046Z 27001KT 14/02 A2991 RMK A01 T01440024  RH  044%=      5-min Rain = 0
KDC1 211047Z 27001KT 14/02 A2991 RMK A01 T01440022  RH  044%=      5-min Rain = 0
KDC1 211048Z 28001KT 14/02 A2991 RMK A01 T01430015  RH  042%=      5-min Rain = 0
KDC1 211049Z 29001KT 14/02 A2991 RMK A01 T01420017  RH  043%=      5-min Rain = 0
KDC1 211050Z 31003KT 14/02 A2991 RMK A01 T01400019  RH  044%=      5-min Rain = 0
KDC1 211051Z 32004KT 14/02 A2991 RMK A01 T01390023  RH  045%=      5-min Rain = 0
KDC1 211052Z 31003KT 14/03 A2991 RMK A01 T01370030  RH  048%=      5-min Rain = 0
KDC1 211053Z 31003KT 14/03 A2991 RMK A01 T01360033  RH  050%=      5-min Rain = 0
KDC1 211054Z 32004KT 14/03 A2991 RMK A01 T01350033  RH  050%=      5-min Rain = 0
KDC1 211055Z 32004KT 13/04 A2991 RMK A01 T01340035  RH  051%=      5-min Rain = 0
KDC1 211056Z 33005KT 13/04 A2991 RMK A01 T01340036  RH  051%=      5-min Rain = 0
KDC1 211057Z 33005KT 13/04 A2991 RMK A01 T01330036  RH  052%=      5-min Rain = 0
KDC1 211058Z 33005KT 13/03 A2991 RMK A01 T01330034  RH  051%=      5-min Rain = 0
KDC1 211059Z 33006KT 13/03 A2991 RMK A01 T01330034  RH  051%=      5-min Rain = 0
KDC1 211100Z 33005KT 13/03 A2991 RMK A01 T01320031  RH  050%=      5-min Rain = 0
KDC1 211101Z 33003KT 13/03 A2991 RMK A01 T01320027  RH  049%=      5-min Rain = 0
KDC1 211102Z 33003KT 13/03 A2991 RMK A01 T01320025  RH  048%=      5-min Rain = 0
KDC1 211103Z 34004KT 13/02 A2991 RMK A01 T01320024  RH  048%=      5-min Rain = 0
KDC1 211104Z 34004KT 13/03 A2991 RMK A01 T01320025  RH  048%=      5-min Rain = 0
KDC1 211105Z 33004KT 13/03 A2991 RMK A01 T01320026  RH  048%=      5-min Rain = 0
KDC1 211106Z 34003KT 13/03 A2991 RMK A01 T01320025  RH  048%=      5-min Rain = 0
KDC1 211107Z 35004KT 13/02 A2991 RMK A01 T01310023  RH  048%=      5-min Rain = 0
KDC1 211108Z 36003KT 13/02 A2991 RMK A01 T01310020  RH  047%=      5-min Rain = 0
KDC1 211109Z 34001KT 13/02 A2992 RMK A01 T01310015  RH  045%=      5-min Rain = 0
KDC1 211110Z 32001KT 13/02 A2992 RMK A01 T01310016  RH  046%=      5-min Rain = 0
KDC1 211111Z 34002KT 13/02 A2992 RMK A01 T01310016  RH  046%=      5-min Rain = 0
KDC1 211112Z 00002KT 13/01 A2992 RMK A01 T01310012  RH  044%=      5-min Rain = 0
KDC1 211113Z 03003KT 13/01 A2992 RMK A01 T01320011  RH  044%=      5-min Rain = 0
KDC1 211114Z 04002KT 13/01 A2992 RMK A01 T01320010  RH  043%=      5-min Rain = 0
KDC1 211115Z 05001KT 13/01 A2992 RMK A01 T01330009  RH  043%=      5-min Rain = 0
KDC1 211116Z 03001KT 13/01 A2992 RMK A01 T01330010  RH  043%=      5-min Rain = 0
KDC1 211117Z 01000KT 13/01 A2992 RMK A01 T01330010  RH  043%=      5-min Rain = 0
KDC1 211118Z 31001KT 13/01 A2992 RMK A01 T01340009  RH  043%=      5-min Rain = 0
KDC1 211119Z 33002KT 13/01 A2992 RMK A01 T01340008  RH  042%=      5-min Rain = 0
KDC1 211120Z 35002KT 14/01 A2992 RMK A01 T01350010  RH  043%=      5-min Rain = 0
KDC1 211121Z 35001KT 13/01 A2992 RMK A01 T01340012  RH  043%=      5-min Rain = 0
KDC1 211122Z 01001KT 13/01 A2992 RMK A01 T01330013  RH  044%=      5-min Rain = 0
KDC1 211123Z 03000KT 13/01 A2993 RMK A01 T01320012  RH  044%=      5-min Rain = 0
KDC1 211124Z 01000KT 13/01 A2993 RMK A01 T01320012  RH  044%=      5-min Rain = 0
KDC1 211125Z 01002KT 13/01 A2993 RMK A01 T01310009  RH  043%=      5-min Rain = 0
KDC1 211126Z 02003KT 13/01 A2993 RMK A01 T01320007  RH  042%=      5-min Rain = 0
KDC1 211127Z 01004KT 13/01 A2993 RMK A01 T01320007  RH  042%=      5-min Rain = 0
KDC1 211128Z 01001KT 13/01 A2993 RMK A01 T01320010  RH  043%=      5-min Rain = 0
KDC1 211129Z 02000KT 13/00 A2993 RMK A01 T01320003  RH  041%=      5-min Rain = 0
KDC1 211130Z 03003KT 13/M00 A2993 RMK A01 T01331001  RH  040%=      5-min Rain = 0
KDC1 211131Z 02002KT 13/00 A2993 RMK A01 T013400-0  RH  040%=      5-min Rain = 0
KDC1 211132Z 28002KT 13/01 A2993 RMK A01 T01340007  RH  042%=      5-min Rain = 0
KDC1 211133Z 28002KT 13/02 A2993 RMK A01 T01320016  RH  045%=      5-min Rain = 0
KDC1 211134Z 34001KT 13/02 A2993 RMK A01 T01310016  RH  045%=      5-min Rain = 0
KDC1 211135Z 33003KT 13/01 A2993 RMK A01 T01310014  RH  045%=      5-min Rain = 0
KDC1 211136Z 32004KT 13/02 A2993 RMK A01 T01310017  RH  046%=      5-min Rain = 0
KDC1 211137Z 35002KT 13/02 A2993 RMK A01 T01290020  RH  047%=      5-min Rain = 0
KDC1 211138Z 02001KT 13/02 A2993 RMK A01 T01280018  RH  047%=      5-min Rain = 0
KDC1 211139Z 03002KT 13/00 A2993 RMK A01 T01280004  RH  043%=      5-min Rain = 0
KDC1 211140Z 01003KT 13/M01 A2993 RMK A01 T01291006  RH  039%=      5-min Rain = 0
KDC1 211141Z 00003KT 13/00 A2993 RMK A01 T01310002  RH  041%=      5-min Rain = 0
KDC1 211142Z 33002KT 13/01 A2993 RMK A01 T01320010  RH  043%=      5-min Rain = 0
KDC1 211143Z 32001KT 13/01 A2993 RMK A01 T01310010  RH  044%=      5-min Rain = 0
KDC1 211144Z 33002KT 13/01 A2993 RMK A01 T01310006  RH  043%=      5-min Rain = 0
KDC1 211145Z 29004KT 13/01 A2993 RMK A01 T01300012  RH  044%=      5-min Rain = 0
KDC1 211146Z 30005KT 13/01 A2993 RMK A01 T01300012  RH  045%=      5-min Rain = 0
KDC1 211147Z 31004KT 13/01 A2993 RMK A01 T01290012  RH  045%=      5-min Rain = 0
KDC1 211148Z 32002KT 13/01 A2993 RMK A01 T01280009  RH  044%=      5-min Rain = 0
KDC1 211149Z 33001KT 13/M00 A2993 RMK A01 T01281001  RH  041%=      5-min Rain = 0
KDC1 211150Z 33003KT 13/M01 A2993 RMK A01 T01311008  RH  038%=      5-min Rain = 0
KDC1 211151Z 31005KT 13/M00 A2993 RMK A01 T01341003  RH  039%=      5-min Rain = 0
KDC1 211152Z 31005KT 13/01 A2993 RMK A01 T01340007  RH  042%=      5-min Rain = 0
KDC1 211153Z 30004KT 13/01 A2993 RMK A01 T01320009  RH  043%=      5-min Rain = 0
KDC1 211154Z 30003KT 13/01 A2993 RMK A01 T01300007  RH  043%=      5-min Rain = 0
KDC1 211155Z 33004KT 13/00 A2993 RMK A01 T01300001  RH  041%=      5-min Rain = 0
KDC1 211156Z 34004KT 13/00 A2993 RMK A01 T01310002  RH  041%=      5-min Rain = 0
KDC1 211157Z 30003KT 13/00 A2994 RMK A01 T01310002  RH  041%=      5-min Rain = 0
KDC1 211158Z 31004KT 13/M01 A2994 RMK A01 T01311006  RH  039%=      5-min Rain = 0
KDC1 211159Z 32004KT 13/M01 A2994 RMK A01 T01331007  RH  038%=      5-min Rain = 0
KDC1 211200Z 33003KT 13/M00 A2994 RMK A01 T01331003  RH  039%=      5-min Rain = 0
KDC1 211201Z 31003KT 13/M00 A2994 RMK A01 T01331002  RH  039%=      5-min Rain = 0
KDC1 211202Z 31003KT 13/M01 A2994 RMK A01 T01331009  RH  038%=      5-min Rain = 0
KDC1 211203Z 34004KT 13/M01 A2994 RMK A01 T01341009  RH  037%=      5-min Rain = 0
KDC1 211204Z 33004KT 13/M01 A2994 RMK A01 T01341005  RH  038%=      5-min Rain = 0
KDC1 211205Z 33005KT 13/00 A2994 RMK A01 T01340001  RH  040%=      5-min Rain = 0
KDC1 211206Z 32005KT 13/01 A2994 RMK A01 T01320005  RH  042%=      5-min Rain = 0
KDC1 211207Z 33004KT 13/01 A2994 RMK A01 T01310005  RH  042%=      5-min Rain = 0
KDC1 211208Z 34005KT 13/01 A2994 RMK A01 T01310005  RH  042%=      5-min Rain = 0
KDC1 211209Z 33006KT 13/00 A2994 RMK A01 T01310003  RH  041%=      5-min Rain = 0
KDC1 211210Z 33004KT 13/01 A2994 RMK A01 T01320005  RH  042%=      5-min Rain = 0
KDC1 211211Z 33004KT 13/01 A2994 RMK A01 T01320007  RH  042%=      5-min Rain = 0
KDC1 211212Z 33004KT 13/01 A2994 RMK A01 T01320006  RH  042%=      5-min Rain = 0
KDC1 211213Z 32004KT 13/01 A2994 RMK A01 T01330005  RH  042%=      5-min Rain = 0
KDC1 211214Z 33005KT 13/01 A2994 RMK A01 T01340005  RH  041%=      5-min Rain = 0
KDC1 211215Z 34005KT 14/01 A2994 RMK A01 T01350008  RH  042%=      5-min Rain = 0
KDC1 211216Z 32004KT 14/01 A2994 RMK A01 T01350010  RH  042%=      5-min Rain = 0
KDC1 211217Z 31003KT 14/01 A2994 RMK A01 T01350012  RH  043%=      5-min Rain = 0
KDC1 211218Z 34002KT 14/01 A2994 RMK A01 T01350012  RH  043%=      5-min Rain = 0
KDC1 211219Z 35003KT 14/01 A2994 RMK A01 T01350009  RH  042%=      5-min Rain = 0
KDC1 211220Z 34004KT 14/01 A2994 RMK A01 T01360010  RH  042%=      5-min Rain = 0
KDC1 211221Z 35004KT 14/01 A2994 RMK A01 T01360013  RH  043%=      5-min Rain = 0
KDC1 211222Z 35003KT 14/01 A2994 RMK A01 T01370012  RH  043%=      5-min Rain = 0
KDC1 211223Z 30001KT 14/01 A2994 RMK A01 T01370011  RH  042%=      5-min Rain = 0
KDC1 211224Z 32001KT 14/01 A2994 RMK A01 T01380008  RH  041%=      5-min Rain = 0
KDC1 211225Z 36004KT 14/00 A2994 RMK A01 T01390003  RH  039%=      5-min Rain = 0
KDC1 211226Z 00005KT 14/01 A2994 RMK A01 T01410005  RH  039%=      5-min Rain = 0
KDC1 211227Z 02004KT 14/01 A2994 RMK A01 T01420009  RH  040%=      5-min Rain = 0
KDC1 211228Z 03002KT 14/01 A2994 RMK A01 T01430012  RH  041%=      5-min Rain = 0
KDC1 211229Z 35000KT 14/01 A2994 RMK A01 T01430006  RH  039%=      5-min Rain = 0
KDC1 211230Z 32003KT 14/00 A2995 RMK A01 T01440001  RH  038%=      5-min Rain = 0
KDC1 211231Z 34003KT 15/00 A2995 RMK A01 T01450001  RH  038%=      5-min Rain = 0
KDC1 211232Z 00002KT 15/00 A2995 RMK A01 T01450004  RH  038%=      5-min Rain = 0
KDC1 211233Z 35000KT 15/01 A2994 RMK A01 T01450005  RH  038%=      5-min Rain = 0
KDC1 211234Z 00000KT 15/00 A2994 RMK A01 T01450002  RH  037%=      5-min Rain = 0
KDC1 211235Z 03002KT 15/M00 A2995 RMK A01 T01461002  RH  036%=      5-min Rain = 0
KDC1 211236Z 01003KT 15/M01 A2995 RMK A01 T01481006  RH  035%=      5-min Rain = 0
KDC1 211237Z 31002KT 15/M00 A2995 RMK A01 T01491002  RH  035%=      5-min Rain = 0
KDC1 211238Z 31002KT 15/00 A2995 RMK A01 T01490001  RH  036%=      5-min Rain = 0
KDC1 211239Z 01002KT 15/00 A2995 RMK A01 T01490002  RH  036%=      5-min Rain = 0
KDC1 211240Z 04004KT 15/M00 A2995 RMK A01 T01501004  RH  035%=      5-min Rain = 0
KDC1 211241Z 05003KT 15/M01 A2995 RMK A01 T01511012  RH  033%=      5-min Rain = 0
KDC1 211242Z 05001KT 15/M01 A2995 RMK A01 T01541011  RH  032%=      5-min Rain = 0
KDC1 211243Z 35001KT 16/M01 A2995 RMK A01 T01561009  RH  032%=      5-min Rain = 0
KDC1 211244Z 35000KT 16/M01 A2995 RMK A01 T01561007  RH  033%=      5-min Rain = 0
KDC1 211245Z 35000KT 16/M01 A2995 RMK A01 T01561006  RH  033%=      5-min Rain = 0
KDC1 211246Z 00001KT 16/M00 A2995 RMK A01 T01561004  RH  033%=      5-min Rain = 0
KDC1 211247Z 02000KT 16/M01 A2995 RMK A01 T01561006  RH  033%=      5-min Rain = 0
KDC1 211248Z 03002KT 16/M01 A2995 RMK A01 T01581007  RH  033%=      5-min Rain = 0
KDC1 211249Z 02002KT 16/M01 A2995 RMK A01 T01591009  RH  032%=      5-min Rain = 0
KDC1 211250Z 02000KT 16/M01 A2995 RMK A01 T01601008  RH  032%=      5-min Rain = 0
KDC1 211251Z 02001KT 16/M01 A2995 RMK A01 T01611007  RH  032%=      5-min Rain = 0
KDC1 211252Z 36002KT 16/M01 A2996 RMK A01 T01621006  RH  032%=      5-min Rain = 0
KDC1 211253Z 33001KT 16/M00 A2996 RMK A01 T01621004  RH  032%=      5-min Rain = 0
KDC1 211254Z 35002KT 16/M00 A2996 RMK A01 T01611004  RH  032%=      5-min Rain = 0
KDC1 211255Z 02002KT 16/M01 A2996 RMK A01 T01611005  RH  032%=      5-min Rain = 0
KDC1 211256Z 02001KT 16/M01 A2996 RMK A01 T01611005  RH  032%=      5-min Rain = 0
KDC1 211257Z 35002KT 16/M01 A2996 RMK A01 T01621008  RH  031%=      5-min Rain = 0
KDC1 211258Z 35003KT 16/M01 A2996 RMK A01 T01621010  RH  031%=      5-min Rain = 0
KDC1 211259Z 00003KT 16/M01 A2996 RMK A01 T01621011  RH  030%=      5-min Rain = 0
KDC1 211300Z 00002KT 16/M01 A2996 RMK A01 T01621009  RH  031%=      5-min Rain = 0
KDC1 211301Z 01002KT 16/M01 A2996 RMK A01 T01621009  RH  031%=      5-min Rain = 0
KDC1 211302Z 35002KT 16/M01 A2996 RMK A01 T01631009  RH  031%=      5-min Rain = 0
KDC1 211303Z 31003KT 16/M01 A2996 RMK A01 T01631008  RH  031%=      5-min Rain = 0
KDC1 211304Z 29003KT 16/M02 A2996 RMK A01 T01631020  RH  029%=      5-min Rain = 0
KDC1 211305Z 33002KT 16/M02 A2996 RMK A01 T01631016  RH  029%=      5-min Rain = 0
KDC1 211306Z 01003KT 17/M01 A2996 RMK A01 T01651013  RH  030%=      5-min Rain = 0
KDC1 211307Z 00002KT 17/M01 A2996 RMK A01 T01651011  RH  030%=      5-min Rain = 0
KDC1 211308Z 33001KT 17/M01 A2996 RMK A01 T01661006  RH  031%=      5-min Rain = 0
KDC1 211309Z 31001KT 17/M00 A2996 RMK A01 T01671004  RH  031%=      5-min Rain = 0
KDC1 211310Z 33002KT 17/M01 A2996 RMK A01 T01671007  RH  031%=      5-min Rain = 0
KDC1 211311Z 31002KT 17/M01 A2996 RMK A01 T01671012  RH  029%=      5-min Rain = 0
KDC1 211312Z 30003KT 17/M01 A2996 RMK A01 T01671012  RH  030%=      5-min Rain = 0
KDC1 211313Z 32002KT 17/M01 A2996 RMK A01 T01671013  RH  029%=      5-min Rain = 0
KDC1 211314Z 30001KT 17/M01 A2996 RMK A01 T01681014  RH  029%=      5-min Rain = 0
KDC1 211315Z 00000KT 17/M01 A2996 RMK A01 T01701009  RH  030%=      5-min Rain = 0
KDC1 211316Z 31001KT 17/M01 A2996 RMK A01 T01711011  RH  029%=      5-min Rain = 0
KDC1 211317Z 32002KT 17/M01 A2996 RMK A01 T01721013  RH  028%=      5-min Rain = 0
KDC1 211318Z 32001KT 17/M01 A2996 RMK A01 T01731014  RH  028%=      5-min Rain = 0
KDC1 211319Z 31002KT 17/M02 A2996 RMK A01 T01741017  RH  027%=      5-min Rain = 0
KDC1 211320Z 31003KT 17/M02 A2996 RMK A01 T01741016  RH  027%=      5-min Rain = 0
KDC1 211321Z 30002KT 18/M02 A2997 RMK A01 T01751018  RH  027%=      5-min Rain = 0
KDC1 211322Z 29001KT 18/M02 A2997 RMK A01 T01751019  RH  027%=      5-min Rain = 0
KDC1 211323Z 29001KT 18/M02 A2997 RMK A01 T01761023  RH  026%=      5-min Rain = 0
KDC1 211324Z 34001KT 18/M02 A2997 RMK A01 T01771018  RH  026%=      5-min Rain = 0
KDC1 211325Z 36002KT 18/M02 A2997 RMK A01 T01781017  RH  026%=      5-min Rain = 0
KDC1 211326Z 35002KT 18/M02 A2997 RMK A01 T01791019  RH  026%=      5-min Rain = 0
KDC1 211327Z 35002KT 18/M02 A2997 RMK A01 T01801023  RH  025%=      5-min Rain = 0
KDC1 211328Z 00002KT 18/M02 A2997 RMK A01 T01811017  RH  026%=      5-min Rain = 0
KDC1 211329Z 00002KT 18/M02 A2997 RMK A01 T01821015  RH  026%=      5-min Rain = 0
KDC1 211330Z 36003KT 18/M01 A2997 RMK A01 T01821010  RH  027%=      5-min Rain = 0
KDC1 211331Z 34003KT 18/M02 A2997 RMK A01 T01821015  RH  026%=      5-min Rain = 0
KDC1 211332Z 33002KT 18/M02 A2997 RMK A01 T01821015  RH  026%=      5-min Rain = 0
KDC1 211333Z 34002KT 18/M01 A2997 RMK A01 T01831014  RH  026%=      5-min Rain = 0
KDC1 211334Z 35002KT 18/M01 A2997 RMK A01 T01841014  RH  026%=      5-min Rain = 0
KDC1 211335Z 34001KT 18/M01 A2997 RMK A01 T01841012  RH  026%=      5-min Rain = 0
KDC1 211336Z 01001KT 19/M01 A2997 RMK A01 T01861011  RH  026%=      5-min Rain = 0
KDC1 211337Z 03002KT 19/M01 A2997 RMK A01 T01871011  RH  026%=      5-min Rain = 0
KDC1 211338Z 02002KT 19/M01 A2997 RMK A01 T01881006  RH  027%=      5-min Rain = 0
KDC1 211339Z 01002KT 19/M00 A2997 RMK A01 T01891001  RH  028%=      5-min Rain = 0
KDC1 211340Z 00002KT 19/00 A2997 RMK A01 T01890004  RH  029%=      5-min Rain = 0
KDC1 211341Z 32002KT 19/01 A2997 RMK A01 T01900006  RH  029%=      5-min Rain = 0
KDC1 211342Z 30002KT 19/00 A2997 RMK A01 T01900004  RH  029%=      5-min Rain = 0
KDC1 211343Z 32002KT 19/M01 A2997 RMK A01 T01911009  RH  026%=      5-min Rain = 0
KDC1 211344Z 34003KT 19/01 A2997 RMK A01 T01910005  RH  029%=      5-min Rain = 0
KDC1 211345Z 34003KT 19/02 A2997 RMK A01 T01910015  RH  031%=      5-min Rain = 0
KDC1 211346Z 34003KT 19/02 A2997 RMK A01 T01910020  RH  032%=      5-min Rain = 0
KDC1 211347Z 35003KT 19/02 A2997 RMK A01 T01910019  RH  032%=      5-min Rain = 0
KDC1 211348Z 35002KT 19/03 A2997 RMK A01 T01910027  RH  034%=      5-min Rain = 0
KDC1 211349Z 30002KT 19/02 A2997 RMK A01 T01910023  RH  033%=      5-min Rain = 0
KDC1 211350Z 30002KT 19/02 A2997 RMK A01 T01920016  RH  031%=      5-min Rain = 0
KDC1 211351Z 35001KT 19/02 A2997 RMK A01 T01920017  RH  031%=      5-min Rain = 0
KDC1 211352Z 36001KT 19/02 A2997 RMK A01 T01930021  RH  032%=      5-min Rain = 0
KDC1 211353Z 35001KT 19/02 A2997 RMK A01 T01940019  RH  031%=      5-min Rain = 0
KDC1 211354Z 34002KT 20/01 A2997 RMK A01 T01950013  RH  030%=      5-min Rain = 0
KDC1 211355Z 34002KT 20/01 A2997 RMK A01 T01960014  RH  030%=      5-min Rain = 0
KDC1 211356Z 34002KT 20/01 A2997 RMK A01 T01970013  RH  029%=      5-min Rain = 0
KDC1 211357Z 33003KT 20/01 A2997 RMK A01 T01970006  RH  028%=      5-min Rain = 0
KDC1 211358Z 33004KT 20/M01 A2997 RMK A01 T01981005  RH  026%=      5-min Rain = 0
KDC1 211359Z 33004KT 20/M01 A2996 RMK A01 T01981010  RH  025%=      5-min Rain = 0
KDC1 211400Z 33003KT 20/M01 A2997 RMK A01 T01991008  RH  025%=      5-min Rain = 0
KDC1 211401Z 33002KT 20/M01 A2997 RMK A01 T02001005  RH  025%=      5-min Rain = 0
KDC1 211402Z 32001KT 20/M01 A2997 RMK A01 T02011008  RH  024%=      5-min Rain = 0
KDC1 211403Z 32000KT 20/M01 A2997 RMK A01 T02021006  RH  025%=      5-min Rain = 0
KDC1 211404Z 31001KT 20/M01 A2997 RMK A01 T02041012  RH  023%=      5-min Rain = 0
KDC1 211405Z 32002KT 21/M02 A2997 RMK A01 T02051015  RH  023%=      5-min Rain = 0
KDC1 211406Z 34002KT 21/M00 A2997 RMK A01 T02051004  RH  025%=      5-min Rain = 0
KDC1 211407Z 35001KT 21/M01 A2997 RMK A01 T02051009  RH  024%=      5-min Rain = 0
KDC1 211408Z 01001KT 21/M01 A2997 RMK A01 T02061013  RH  023%=      5-min Rain = 0
KDC1 211409Z 34000KT 21/M02 A2997 RMK A01 T02071015  RH  022%=      5-min Rain = 0
KDC1 211410Z 29000KT 21/M01 A2997 RMK A01 T02081008  RH  023%=      5-min Rain = 0
KDC1 211411Z 00000KT 21/M02 A2997 RMK A01 T02091016  RH  022%=      5-min Rain = 0
KDC1 211412Z 00000KT 21/M02 A2997 RMK A01 T02111020  RH  021%=      5-min Rain = 0
KDC1 211413Z 04000KT 21/M01 A2997 RMK A01 T02131012  RH  022%=      5-min Rain = 0
KDC1 211414Z 05001KT 22/01 A2998 RMK A01 T02150010  RH  026%=      5-min Rain = 0
KDC1 211415Z 03001KT 22/02 A2998 RMK A01 T02160021  RH  027%=      5-min Rain = 0
KDC1 211416Z 03001KT 22/02 A2998 RMK A01 T02170020  RH  027%=      5-min Rain = 0
KDC1 211417Z 02000KT 22/02 A2998 RMK A01 T02170021  RH  027%=      5-min Rain = 0
KDC1 211418Z 00000KT 22/02 A2997 RMK A01 T02180020  RH  027%=      5-min Rain = 0
KDC1 211419Z 17001KT 22/03 A2998 RMK A01 T02200029  RH  029%=      5-min Rain = 0
KDC1 211420Z 15002KT 22/06 A2997 RMK A01 T02200059  RH  035%=      5-min Rain = 0
KDC1 211421Z 14000KT 22/05 A2997 RMK A01 T02200050  RH  033%=      5-min Rain = 0
KDC1 211422Z 01001KT 22/03 A2997 RMK A01 T02200034  RH  030%=      5-min Rain = 0
KDC1 211423Z 36002KT 22/02 A2997 RMK A01 T02200020  RH  027%=      5-min Rain = 0
KDC1 211424Z 36001KT 22/02 A2997 RMK A01 T02200020  RH  027%=      5-min Rain = 0
KDC1 211425Z 35001KT 22/02 A2998 RMK A01 T02200022  RH  027%=      5-min Rain = 0
KDC1 211426Z 00001KT 22/03 A2998 RMK A01 T02190025  RH  028%=      5-min Rain = 0
KDC1 211427Z 35000KT 22/02 A2998 RMK A01 T02190022  RH  027%=      5-min Rain = 0
KDC1 211428Z 00000KT 22/02 A2998 RMK A01 T02200022  RH  027%=      5-min Rain = 0
KDC1 211429Z 00000KT 22/02 A2998 RMK A01 T02220022  RH  027%=      5-min Rain = 0
KDC1 211430Z 30001KT 22/02 A2998 RMK A01 T02230024  RH  027%=      5-min Rain = 0
KDC1 211431Z 33002KT 22/02 A2998 RMK A01 T02230021  RH  026%=      5-min Rain = 0
KDC1 211432Z 35002KT 22/02 A2998 RMK A01 T02220021  RH  027%=      5-min Rain = 0
KDC1 211433Z 01003KT 22/02 A2998 RMK A01 T02210024  RH  027%=      5-min Rain = 0
KDC1 211434Z 01003KT 22/03 A2998 RMK A01 T02210025  RH  028%=      5-min Rain = 0
KDC1 211435Z 36002KT 22/02 A2998 RMK A01 T02210016  RH  026%=      5-min Rain = 0
KDC1 211436Z 36002KT 22/02 A2998 RMK A01 T02210015  RH  026%=      5-min Rain = 0
KDC1 211437Z 30001KT 22/02 A2998 RMK A01 T02210015  RH  026%=      5-min Rain = 0
KDC1 211438Z 32001KT 22/01 A2998 RMK A01 T02220014  RH  025%=      5-min Rain = 0
KDC1 211439Z 33002KT 22/01 A2998 RMK A01 T02230008  RH  024%=      5-min Rain = 0
KDC1 211440Z 01003KT 22/01 A2998 RMK A01 T02240010  RH  024%=      5-min Rain = 0
KDC1 211441Z 36003KT 22/01 A2998 RMK A01 T02240012  RH  025%=      5-min Rain = 0
KDC1 211442Z 00003KT 23/02 A2998 RMK A01 T02250018  RH  026%=      5-min Rain = 0
KDC1 211443Z 35002KT 23/02 A2998 RMK A01 T02250020  RH  026%=      5-min Rain = 0
KDC1 211444Z 00001KT 23/02 A2998 RMK A01 T02250015  RH  025%=      5-min Rain = 0
KDC1 211445Z 02001KT 23/02 A2998 RMK A01 T02260016  RH  025%=      5-min Rain = 0
KDC1 211446Z 01001KT 23/02 A2998 RMK A01 T02280016  RH  025%=      5-min Rain = 0
KDC1 211447Z 35001KT 23/02 A2998 RMK A01 T02300015  RH  024%=      5-min Rain = 0
KDC1 211448Z 35003KT 23/02 A2998 RMK A01 T02310016  RH  024%=      5-min Rain = 0
KDC1 211449Z 33003KT 23/01 A2998 RMK A01 T02310005  RH  022%=      5-min Rain = 0
KDC1 211450Z 35001KT 23/01 A2998 RMK A01 T02300008  RH  023%=      5-min Rain = 0
KDC1 211451Z 03000KT 23/02 A2998 RMK A01 T02300017  RH  025%=      5-min Rain = 0
KDC1 211452Z 05000KT 23/02 A2998 RMK A01 T02330023  RH  025%=      5-min Rain = 0
KDC1 211453Z 03001KT 24/02 A2998 RMK A01 T02360023  RH  025%=      5-min Rain = 0
KDC1 211454Z 35002KT 24/02 A2998 RMK A01 T02360016  RH  024%=      5-min Rain = 0
KDC1 211455Z 31003KT 24/02 A2998 RMK A01 T02360019  RH  024%=      5-min Rain = 0
KDC1 211456Z 31003KT 24/01 A2998 RMK A01 T02350008  RH  022%=      5-min Rain = 0
KDC1 211457Z 02002KT 24/00 A2998 RMK A01 T02350003  RH  022%=      5-min Rain = 0
KDC1 211458Z 05002KT 24/00 A2997 RMK A01 T02350002  RH  021%=      5-min Rain = 0
KDC1 211459Z 05001KT 24/M00 A2997 RMK A01 T02371001  RH  021%=      5-min Rain = 0
KDC1 211500Z 03001KT 24/00 A2997 RMK A01 T02390002  RH  021%=      5-min Rain = 0
KDC1 211501Z 01001KT 24/M00 A2997 RMK A01 T02401004  RH  020%=      5-min Rain = 0
KDC1 211502Z 02001KT 24/M00 A2997 RMK A01 T02421002  RH  020%=      5-min Rain = 0
KDC1 211503Z 01002KT 24/01 A2997 RMK A01 T02430006  RH  021%=      5-min Rain = 0
KDC1 211504Z 00002KT 24/M01 A2998 RMK A01 T02441010  RH  019%=      5-min Rain = 0
KDC1 211505Z 35002KT 24/00 A2998 RMK A01 T02440003  RH  020%=      5-min Rain = 0
KDC1 211506Z 34002KT 25/M00 A2998 RMK A01 T02451003  RH  019%=      5-min Rain = 0
KDC1 211507Z 35001KT 25/M00 A2998 RMK A01 T02451002  RH  020%=      5-min Rain = 0
KDC1 211508Z 07001KT 25/00 A2998 RMK A01 T02470004  RH  020%=      5-min Rain = 0
KDC1 211509Z 14001KT 25/00 A2998 RMK A01 T02490003  RH  020%=      5-min Rain = 0
KDC1 211510Z 21000KT 25/M00 A2998 RMK A01 T02511002  RH  019%=      5-min Rain = 0
KDC1 211511Z 21000KT 25/M00 A2998 RMK A01 T02511001  RH  019%=      5-min Rain = 0
KDC1 211512Z 32000KT 25/00 A2998 RMK A01 T02530001  RH  019%=      5-min Rain = 0
KDC1 211513Z 33001KT 26/00 A2998 RMK A01 T02560002  RH  019%=      5-min Rain = 0
KDC1 211514Z 34002KT 26/00 A2998 RMK A01 T02580002  RH  019%=      5-min Rain = 0
KDC1 211515Z 01001KT 26/01 A2998 RMK A01 T02580007  RH  019%=      5-min Rain = 0
KDC1 211516Z 02000KT 26/01 A2998 RMK A01 T02570010  RH  020%=      5-min Rain = 0
KDC1 211517Z 02001KT 26/01 A2998 RMK A01 T02580012  RH  020%=      5-min Rain = 0
KDC1 211518Z 24000KT 26/01 A2998 RMK A01 T02590010  RH  020%=      5-min Rain = 0
KDC1 211519Z 23001KT 26/M00 A2998 RMK A01 T02611003  RH  018%=      5-min Rain = 0
KDC1 211520Z 23001KT 26/M00 A2998 RMK A01 T02631004  RH  017%=      5-min Rain = 0
KDC1 211521Z 24002KT 26/M01 A2998 RMK A01 T02621006  RH  017%=      5-min Rain = 0
KDC1 211522Z 23001KT 26/M01 A2998 RMK A01 T02621006  RH  017%=      5-min Rain = 0
KDC1 211523Z 21000KT 26/M00 A2998 RMK A01 T02621003  RH  018%=      5-min Rain = 0
KDC1 211524Z 25001KT 26/00 A2998 RMK A01 T02630001  RH  018%=      5-min Rain = 0
KDC1 211525Z 23000KT 26/M01 A2998 RMK A01 T02641007  RH  017%=      5-min Rain = 0
KDC1 211526Z 00000KT 27/M00 A2997 RMK A01 T02661004  RH  017%=      5-min Rain = 0
KDC1 211527Z 24000KT 27/M01 A2997 RMK A01 T02701005  RH  017%=      5-min Rain = 0
KDC1 211528Z 25001KT 27/M00 A2998 RMK A01 T02721004  RH  016%=      5-min Rain = 0
KDC1 211529Z 21000KT 27/01 A2998 RMK A01 T02730014  RH  019%=      5-min Rain = 0
KDC1 211530Z 11000KT 27/05 A2998 RMK A01 T02730053  RH  025%=      5-min Rain = 0
KDC1 211531Z 11001KT 27/05 A2997 RMK A01 T02740046  RH  023%=      5-min Rain = 0
KDC1 211532Z 10001KT 27/04 A2997 RMK A01 T02730035  RH  022%=      5-min Rain = 0
KDC1 211533Z 10001KT 27/04 A2997 RMK A01 T02730038  RH  022%=      5-min Rain = 0
KDC1 211534Z 08001KT 28/04 A2997 RMK A01 T02750037  RH  022%=      5-min Rain = 0
KDC1 211535Z 05001KT 28/02 A2997 RMK A01 T02760024  RH  020%=      5-min Rain = 0
KDC1 211536Z 03000KT 28/02 A2997 RMK A01 T02780020  RH  019%=      5-min Rain = 0
KDC1 211537Z 00000KT 28/02 A2997 RMK A01 T02820020  RH  018%=      5-min Rain = 0
KDC1 211538Z 03001KT 28/02 A2997 RMK A01 T02840019  RH  018%=      5-min Rain = 0
KDC1 211539Z 03001KT 29/02 A2997 RMK A01 T02850020  RH  018%=      5-min Rain = 0
KDC1 211540Z 03001KT 28/02 A2997 RMK A01 T02840021  RH  018%=      5-min Rain = 0
KDC1 211541Z 35000KT 28/02 A2997 RMK A01 T02820017  RH  018%=      5-min Rain = 0
KDC1 211542Z 34000KT 28/02 A2997 RMK A01 T02820015  RH  018%=      5-min Rain = 0
KDC1 211543Z 00000KT 28/02 A2997 RMK A01 T02810016  RH  018%=      5-min Rain = 0
KDC1 211544Z 05001KT 28/02 A2997 RMK A01 T02810020  RH  019%=      5-min Rain = 0
KDC1 211545Z 06003KT 28/02 A2997 RMK A01 T02830024  RH  019%=      5-min Rain = 0
KDC1 211546Z 09003KT 28/04 A2997 RMK A01 T02830035  RH  020%=      5-min Rain = 0
KDC1 211547Z 09004KT 28/04 A2997 RMK A01 T02840037  RH  021%=      5-min Rain = 0
KDC1 211548Z 09004KT 28/03 A2997 RMK A01 T02840030  RH  020%=      5-min Rain = 0
KDC1 211549Z 11004KT 29/03 A2997 RMK A01 T02850027  RH  019%=      5-min Rain = 0
KDC1 211550Z 11004KT 28/04 A2997 RMK A01 T02840035  RH  020%=      5-min Rain = 0
KDC1 211551Z 12004KT 28/03 A2997 RMK A01 T02830034  RH  020%=      5-min Rain = 0
KDC1 211552Z 12004KT 28/06 A2997 RMK A01 T02820058  RH  024%=      5-min Rain = 0
KDC1 211553Z 11003KT 28/05 A2997 RMK A01 T02810045  RH  022%=      5-min Rain = 0
KDC1 211554Z 12003KT 28/06 A2997 RMK A01 T02810063  RH  025%=      5-min Rain = 0
KDC1 211555Z 12003KT 28/07 A2997 RMK A01 T02790072  RH  027%=      5-min Rain = 0
KDC1 211556Z 12004KT 28/07 A2997 RMK A01 T02780071  RH  027%=      5-min Rain = 0
KDC1 211557Z 12003KT 28/06 A2997 RMK A01 T02780064  RH  026%=      5-min Rain = 0
KDC1 211558Z 11002KT 28/05 A2997 RMK A01 T02790050  RH  023%=      5-min Rain = 0
KDC1 211559Z 10002KT 28/05 A2997 RMK A01 T02800053  RH  024%=      5-min Rain = 0
KDC1 211600Z 09002KT 28/06 A2997 RMK A01 T02810057  RH  024%=      5-min Rain = 0
KDC1 211601Z 07003KT 28/05 A2997 RMK A01 T02830054  RH  023%=      5-min Rain = 0
KDC1 211602Z 07002KT 28/05 A2997 RMK A01 T02830053  RH  023%=      5-min Rain = 0
KDC1 211603Z 09003KT 28/05 A2997 RMK A01 T02830048  RH  022%=      5-min Rain = 0
KDC1 211604Z 10004KT 28/05 A2997 RMK A01 T02840047  RH  022%=      5-min Rain = 0
KDC1 211605Z 11004KT 28/06 A2997 RMK A01 T02840060  RH  024%=      5-min Rain = 0
KDC1 211606Z 11003KT 29/06 A2997 RMK A01 T02850061  RH  024%=      5-min Rain = 0
KDC1 211607Z 11002KT 29/07 A2997 RMK A01 T02860069  RH  025%=      5-min Rain = 0
KDC1 211608Z 12003KT 29/07 A2997 RMK A01 T02890072  RH  026%=      5-min Rain = 0
KDC1 211609Z 13003KT 29/09 A2997 RMK A01 T02900087  RH  028%=      5-min Rain = 0
KDC1 211610Z 13003KT 29/10 A2997 RMK A01 T02900096  RH  030%=      5-min Rain = 0
KDC1 211611Z 11003KT 29/08 A2997 RMK A01 T02900083  RH  027%=      5-min Rain = 0
KDC1 211612Z 12004KT 29/08 A2996 RMK A01 T02890076  RH  026%=      5-min Rain = 0
KDC1 211613Z 11004KT 29/07 A2996 RMK A01 T02880072  RH  026%=      5-min Rain = 0
KDC1 211614Z 11004KT 29/07 A2996 RMK A01 T02870069  RH  025%=      5-min Rain = 0
KDC1 211615Z 11004KT 29/09 A2996 RMK A01 T02870088  RH  029%=      5-min Rain = 0
KDC1 211616Z 12003KT 29/09 A2996 RMK A01 T02880092  RH  029%=      5-min Rain = 0
KDC1 211617Z 12003KT 29/09 A2996 RMK A01 T02880086  RH  028%=      5-min Rain = 0
KDC1 211618Z 12004KT 29/08 A2996 RMK A01 T02890076  RH  026%=      5-min Rain = 0
KDC1 211619Z 12006KT 29/08 A2996 RMK A01 T02900084  RH  027%=      5-min Rain = 0
KDC1 211620Z 12006KT 29/09 A2996 RMK A01 T02900091  RH  029%=      5-min Rain = 0
KDC1 211621Z 12004KT 29/10 A2996 RMK A01 T02890098  RH  030%=      5-min Rain = 0
KDC1 211622Z 14002KT 29/11 A2996 RMK A01 T02900106  RH  032%=      5-min Rain = 0
KDC1 211623Z 14002KT 29/09 A2996 RMK A01 T02920094  RH  029%=      5-min Rain = 0
KDC1 211624Z 13004KT 29/09 A2996 RMK A01 T02930094  RH  029%=      5-min Rain = 0
KDC1 211625Z 11005KT 29/09 A2996 RMK A01 T02940087  RH  028%=      5-min Rain = 0
KDC1 211626Z 10005KT 29/07 A2996 RMK A01 T02940066  RH  024%=      5-min Rain = 0
KDC1 211627Z 09004KT 30/06 A2996 RMK A01 T02960063  RH  023%=      5-min Rain = 0
KDC1 211628Z 09003KT 30/07 A2996 RMK A01 T02970067  RH  024%=      5-min Rain = 0
KDC1 211629Z 17002KT 30/07 A2996 RMK A01 T02980069  RH  024%=      5-min Rain = 0
KDC1 211630Z 23002KT 30/10 A2996 RMK A01 T03010100  RH  029%=      5-min Rain = 0
KDC1 211631Z 25000KT 30/04 A2996 RMK A01 T03020040  RH  019%=      5-min Rain = 0
KDC1 211632Z 32002KT 30/03 A2996 RMK A01 T03030029  RH  017%=      5-min Rain = 0
KDC1 211633Z 26001KT 31/04 A2996 RMK A01 T03050038  RH  018%=      5-min Rain = 0
KDC1 211634Z 24004KT 31/04 A2996 RMK A01 T03080038  RH  018%=      5-min Rain = 0
KDC1 211635Z 22002KT 31/04 A2996 RMK A01 T03110038  RH  018%=      5-min Rain = 0
KDC1 211636Z 24004G10KT 31/05 A2996 RMK A01 T03130045  RH  018%=      5-min Rain = 0
KDC1 211637Z 26006KT 32/04 A2996 RMK A01 T03170043  RH  018%=      5-min Rain = 0
KDC1 211638Z 27008KT 32/05 A2996 RMK A01 T03230049  RH  018%=      5-min Rain = 0
KDC1 211639Z 29008KT 33/03 A2996 RMK A01 T03250029  RH  015%=      5-min Rain = 0
KDC1 211640Z 28012KT 33/03 A2996 RMK A01 T03260026  RH  015%=      5-min Rain = 0
KDC1 211641Z 30010KT 33/03 A2996 RMK A01 T03300029  RH  015%=      5-min Rain = 0
KDC1 211642Z 30008KT 33/04 A2996 RMK A01 T03300036  RH  016%=      5-min Rain = 0
KDC1 211643Z 27012G17KT 33/02 A2996 RMK A01 T03280020  RH  014%=      5-min Rain = 0
KDC1 211644Z 26015KT 33/02 A2996 RMK A01 T03290019  RH  014%=      5-min Rain = 0
KDC1 211645Z 27013KT 33/02 A2996 RMK A01 T03280016  RH  014%=      5-min Rain = 0
KDC1 211646Z 27013KT 33/02 A2996 RMK A01 T03280015  RH  014%=      5-min Rain = 0
KDC1 211647Z 27009KT 33/02 A2996 RMK A01 T03280015  RH  014%=      5-min Rain = 0
KDC1 211648Z 27010KT 33/02 A2996 RMK A01 T03290015  RH  014%=      5-min Rain = 0
KDC1 211649Z 28010KT 33/02 A2996 RMK A01 T03300017  RH  014%=      5-min Rain = 0
KDC1 211650Z 27010KT 33/02 A2996 RMK A01 T03310015  RH  013%=      5-min Rain = 0
KDC1 211651Z 28008KT 33/01 A2996 RMK A01 T03270012  RH  013%=      5-min Rain = 0
KDC1 211652Z 27006KT 33/02 A2996 RMK A01 T03260015  RH  014%=      5-min Rain = 0
KDC1 211653Z 26009KT 33/02 A2996 RMK A01 T03270020  RH  014%=      5-min Rain = 0
KDC1 211654Z 24007KT 33/02 A2996 RMK A01 T03280019  RH  014%=      5-min Rain = 0
KDC1 211655Z 25007KT 33/02 A2996 RMK A01 T03270016  RH  014%=      5-min Rain = 0
KDC1 211656Z 25007KT 33/03 A2996 RMK A01 T03270027  RH  015%=      5-min Rain = 0
KDC1 211657Z 25010KT 33/04 A2996 RMK A01 T03290043  RH  017%=      5-min Rain = 0
KDC1 211658Z 26008KT 33/03 A2996 RMK A01 T03290034  RH  016%=      5-min Rain = 0
KDC1 211659Z 28011KT 33/02 A2996 RMK A01 T03290018  RH  014%=      5-min Rain = 0
KDC1 211700Z 26011KT 33/02 A2995 RMK A01 T03280016  RH  014%=      5-min Rain = 0
KDC1 211701Z 26010KT 33/02 A2995 RMK A01 T03280016  RH  014%=      5-min Rain = 0
KDC1 211702Z 26009KT 33/02 A2995 RMK A01 T03280017  RH  014%=      5-min Rain = 0
KDC1 211703Z 27014KT 33/02 A2995 RMK A01 T03300020  RH  014%=      5-min Rain = 0
KDC1 211704Z 26013KT 33/02 A2995 RMK A01 T03320016  RH  013%=      5-min Rain = 0
KDC1 211705Z 27014KT 33/02 A2995 RMK A01 T03320021  RH  014%=      5-min Rain = 0
KDC1 211706Z 28015KT 34/01 A2995 RMK A01 T03350013  RH  013%=      5-min Rain = 0
KDC1 211707Z 28018KT 34/01 A2995 RMK A01 T03350009  RH  013%=      5-min Rain = 0
KDC1 211708Z 26016G21KT 34/02 A2995 RMK A01 T03350016  RH  013%=      5-min Rain = 0
KDC1 211709Z 25013KT 33/02 A2995 RMK A01 T03330020  RH  014%=      5-min Rain = 0
KDC1 211710Z 26014KT 33/02 A2995 RMK A01 T03300022  RH  014%=      5-min Rain = 0
KDC1 211711Z 26011KT 33/02 A2995 RMK A01 T03300018  RH  014%=      5-min Rain = 0
KDC1 211712Z 26007KT 33/04 A2995 RMK A01 T03310035  RH  016%=      5-min Rain = 0
KDC1 211713Z 26009KT 33/04 A2995 RMK A01 T03310044  RH  017%=      5-min Rain = 0
KDC1 211714Z 27011KT 33/02 A2995 RMK A01 T03310020  RH  014%=      5-min Rain = 0
KDC1 211715Z 27014KT 33/01 A2995 RMK A01 T03330012  RH  013%=      5-min Rain = 0
KDC1 211716Z 25013KT 33/02 A2995 RMK A01 T03340022  RH  014%=      5-min Rain = 0
KDC1 211717Z 26016KT 33/03 A2995 RMK A01 T03330028  RH  015%=      5-min Rain = 0
KDC1 211718Z 25013G18KT 33/03 A2995 RMK A01 T03320029  RH  015%=      5-min Rain = 0
KDC1 211719Z 25013KT 33/03 A2995 RMK A01 T03310026  RH  015%=      5-min Rain = 0
KDC1 211720Z 25012KT 33/02 A2995 RMK A01 T03300024  RH  014%=      5-min Rain = 0
KDC1 211721Z 25012KT 33/02 A2995 RMK A01 T03290023  RH  014%=      5-min Rain = 0
KDC1 211722Z 24011KT 33/03 A2995 RMK A01 T03290025  RH  015%=      5-min Rain = 0
KDC1 211723Z 25011KT 33/04 A2995 RMK A01 T03300037  RH  016%=      5-min Rain = 0
KDC1 211724Z 25014KT 33/04 A2995 RMK A01 T03310038  RH  016%=      5-min Rain = 0
KDC1 211725Z 25017KT 33/03 A2995 RMK A01 T03290030  RH  015%=      5-min Rain = 0
KDC1 211726Z 26015KT 33/02 A2995 RMK A01 T03290018  RH  014%=      5-min Rain = 0
KDC1 211727Z 26018KT 33/02 A2995 RMK A01 T03300023  RH  014%=      5-min Rain = 0
KDC1 211728Z 26017KT 33/01 A2995 RMK A01 T03300014  RH  013%=      5-min Rain = 0
KDC1 211729Z 26019G24KT 33/01 A2995 RMK A01 T03300014  RH  013%=      5-min Rain = 0
KDC1 211730Z 26015KT 33/01 A2995 RMK A01 T03330012  RH  013%=      5-min Rain = 0
KDC1 211731Z 26010KT 33/01 A2995 RMK A01 T03330012  RH  013%=      5-min Rain = 0
KDC1 211732Z 27013KT 33/01 A2995 RMK A01 T03340013  RH  013%=      5-min Rain = 0
KDC1 211733Z 27018KT 34/01 A2995 RMK A01 T03350011  RH  013%=      5-min Rain = 0
KDC1 211734Z 27018KT 34/01 A2995 RMK A01 T03360010  RH  013%=      5-min Rain = 0
KDC1 211735Z 26015KT 34/01 A2995 RMK A01 T03360009  RH  012%=      5-min Rain = 0
KDC1 211736Z 26015KT 34/01 A2995 RMK A01 T03360010  RH  013%=      5-min Rain = 0
KDC1 211737Z 28013KT 34/01 A2995 RMK A01 T03350005  RH  012%=      5-min Rain = 0
KDC1 211738Z 27010KT 33/01 A2995 RMK A01 T03340007  RH  013%=      5-min Rain = 0
KDC1 211739Z 26011G16KT 34/02 A2995 RMK A01 T03360015  RH  013%=      5-min Rain = 0
KDC1 211740Z 26016KT 34/02 A2995 RMK A01 T03380018  RH  013%=      5-min Rain = 0
KDC1 211741Z 26015G20KT 34/01 A2995 RMK A01 T03390012  RH  013%=      5-min Rain = 0
KDC1 211742Z 28012KT 34/01 A2994 RMK A01 T03380005  RH  012%=      5-min Rain = 0
KDC1 211743Z 26013KT 34/01 A2994 RMK A01 T03360006  RH  012%=      5-min Rain = 0
KDC1 211744Z 26014KT 34/02 A2994 RMK A01 T03380019  RH  013%=      5-min Rain = 0
KDC1 211745Z 27017KT 34/02 A2994 RMK A01 T03380016  RH  013%=      5-min Rain = 0
KDC1 211746Z 27014KT 34/01 A2994 RMK A01 T03370007  RH  012%=      5-min Rain = 0
KDC1 211747Z 26012KT 34/01 A2994 RMK A01 T03360009  RH  013%=      5-min Rain = 0
KDC1 211748Z 26012KT 34/03 A2995 RMK A01 T03380025  RH  014%=      5-min Rain = 0
KDC1 211749Z 26012G17KT 34/02 A2994 RMK A01 T03360022  RH  014%=      5-min Rain = 0
KDC1 211750Z 24012KT 34/03 A2994 RMK A01 T03360026  RH  014%=      5-min Rain = 0
KDC1 211751Z 22008KT 34/02 A2994 RMK A01 T03370020  RH  013%=      5-min Rain = 0
KDC1 211752Z 25010KT 34/02 A2994 RMK A01 T03360017  RH  013%=      5-min Rain = 0
KDC1 211753Z 26018KT 34/02 A2994 RMK A01 T03360020  RH  014%=      5-min Rain = 0
KDC1 211754Z 25017KT 34/01 A2994 RMK A01 T03360014  RH  013%=      5-min Rain = 0
KDC1 211755Z 25016KT 33/01 A2994 RMK A01 T03330007  RH  013%=      5-min Rain = 0
KDC1 211756Z 25015KT 33/02 A2994 RMK A01 T03310019  RH  014%=      5-min Rain = 0
KDC1 211757Z 26014KT 33/02 A2994 RMK A01 T03330021  RH  014%=      5-min Rain = 0
KDC1 211758Z 26012KT 33/02 A2994 RMK A01 T03330016  RH  013%=      5-min Rain = 0
KDC1 211759Z 26011KT 33/02 A2994 RMK A01 T03340023  RH  014%=      5-min Rain = 0
KDC1 211800Z 26012KT 33/02 A2994 RMK A01 T03340023  RH  014%=      5-min Rain = 0
KDC1 211801Z 27021KT 34/01 A2994 RMK A01 T03360012  RH  013%=      5-min Rain = 0
KDC1 211802Z 27017KT 34/00 A2994 RMK A01 T03370002  RH  012%=      5-min Rain = 0
KDC1 211803Z 27018KT 34/00 A2994 RMK A01 T033900-0  RH  012%=      5-min Rain = 0
KDC1 211804Z 27017KT 34/M00 A2994 RMK A01 T03401001  RH  011%=      5-min Rain = 0
KDC1 211805Z 27019KT 34/M00 A2994 RMK A01 T03421004  RH  011%=      5-min Rain = 0
KDC1 211806Z 27015KT 34/M00 A2994 RMK A01 T03411004  RH  011%=      5-min Rain = 0
KDC1 211807Z 27015KT 34/M00 A2994 RMK A01 T03401004  RH  011%=      5-min Rain = 0
KDC1 211808Z 28013G18KT 34/M00 A2994 RMK A01 T03381004  RH  011%=      5-min Rain = 0
KDC1 211809Z 27014KT 34/M00 A2994 RMK A01 T03351001  RH  012%=      5-min Rain = 0
KDC1 211810Z 28015KT 34/M00 A2994 RMK A01 T03371003  RH  011%=      5-min Rain = 0
KDC1 211811Z 26016KT 34/M00 A2994 RMK A01 T03381001  RH  011%=      5-min Rain = 0
KDC1 211812Z 26013KT 34/M00 A2993 RMK A01 T03411002  RH  011%=      5-min Rain = 0
KDC1 211813Z 28013KT 34/00 A2994 RMK A01 T03420002  RH  012%=      5-min Rain = 0
KDC1 211814Z 29016KT 34/M01 A2993 RMK A01 T03431007  RH  011%=      5-min Rain = 0
KDC1 211815Z 29016KT 34/M01 A2993 RMK A01 T03411006  RH  011%=      5-min Rain = 0
KDC1 211816Z 27015KT 34/M00 A2993 RMK A01 T03431004  RH  011%=      5-min Rain = 0
KDC1 211817Z 26011G16KT 34/01 A2993 RMK A01 T03440011  RH  012%=      5-min Rain = 0
KDC1 211818Z 25013KT 35/01 A2993 RMK A01 T03450010  RH  012%=      5-min Rain = 0
KDC1 211819Z 27014G19KT 34/01 A2993 RMK A01 T03400009  RH  012%=      5-min Rain = 0
KDC1 211820Z 26014G19KT 34/M00 A2993 RMK A01 T03391001  RH  011%=      5-min Rain = 0
KDC1 211821Z 23007KT 34/02 A2993 RMK A01 T03410023  RH  013%=      5-min Rain = 0
KDC1 211822Z 23011KT 34/02 A2993 RMK A01 T03420020  RH  013%=      5-min Rain = 0
KDC1 211823Z 24010KT 34/01 A2993 RMK A01 T03400008  RH  012%=      5-min Rain = 0
KDC1 211824Z 25013KT 34/03 A2993 RMK A01 T03400027  RH  014%=      5-min Rain = 0
KDC1 211825Z 25013KT 34/03 A2993 RMK A01 T03390028  RH  014%=      5-min Rain = 0
KDC1 211826Z 25014KT 34/04 A2993 RMK A01 T03380036  RH  015%=      5-min Rain = 0
KDC1 211827Z 27018KT 34/02 A2993 RMK A01 T03370019  RH  013%=      5-min Rain = 0
KDC1 211828Z 27017KT 34/01 A2993 RMK A01 T03390005  RH  012%=      5-min Rain = 0
KDC1 211829Z 27014KT 34/00 A2993 RMK A01 T03400001  RH  012%=      5-min Rain = 0
KDC1 211830Z 26012KT 34/01 A2993 RMK A01 T03400010  RH  012%=      5-min Rain = 0
KDC1 211831Z 26012KT 34/01 A2993 RMK A01 T03420010  RH  012%=      5-min Rain = 0
KDC1 211832Z 26007KT 34/01 A2993 RMK A01 T03400011  RH  012%=      5-min Rain = 0
KDC1 211833Z 25007KT 34/02 A2993 RMK A01 T03410018  RH  013%=      5-min Rain = 0
KDC1 211834Z 27009G15KT 34/02 A2993 RMK A01 T03420021  RH  013%=      5-min Rain = 0
KDC1 211835Z 25013G18KT 34/02 A2993 RMK A01 T03420016  RH  013%=      5-min Rain = 0
KDC1 211836Z 25013KT 34/03 A2993 RMK A01 T03420032  RH  014%=      5-min Rain = 0
KDC1 211837Z 25011KT 34/04 A2993 RMK A01 T03400035  RH  015%=      5-min Rain = 0
KDC1 211838Z 27010KT 34/02 A2993 RMK A01 T03390019  RH  013%=      5-min Rain = 0
KDC1 211839Z 26011G17KT 34/02 A2993 RMK A01 T03400019  RH  013%=      5-min Rain = 0
KDC1 211840Z 26012KT 34/02 A2993 RMK A01 T03420015  RH  013%=      5-min Rain = 0
KDC1 211841Z 23008KT 34/02 A2993 RMK A01 T03440017  RH  013%=      5-min Rain = 0
KDC1 211842Z 25006KT 34/02 A2993 RMK A01 T03440019  RH  013%=      5-min Rain = 0
KDC1 211843Z 25009KT 34/02 A2993 RMK A01 T03410015  RH  013%=      5-min Rain = 0
KDC1 211844Z 27014G20KT 34/02 A2993 RMK A01 T03400023  RH  014%=      5-min Rain = 0
KDC1 211845Z 27017KT 34/00 A2992 RMK A01 T03420002  RH  012%=      5-min Rain = 0
KDC1 211846Z 27017KT 34/01 A2992 RMK A01 T03430005  RH  012%=      5-min Rain = 0
KDC1 211847Z 28016KT 35/00 A2992 RMK A01 T03460003  RH  011%=      5-min Rain = 0
KDC1 211848Z 27012KT 35/00 A2993 RMK A01 T03450002  RH  011%=      5-min Rain = 0
KDC1 211849Z 25009KT 35/03 A2993 RMK A01 T03460029  RH  014%=      5-min Rain = 0
KDC1 211850Z 24008KT 35/03 A2993 RMK A01 T03470033  RH  014%=      5-min Rain = 0
KDC1 211851Z 23007KT 35/01 A2993 RMK A01 T03460013  RH  012%=      5-min Rain = 0
KDC1 211852Z 21006KT 35/02 A2993 RMK A01 T03450018  RH  013%=      5-min Rain = 0
KDC1 211853Z 22006G13KT 35/02 A2993 RMK A01 T03460017  RH  013%=      5-min Rain = 0
KDC1 211854Z 24009G14KT 35/02 A2993 RMK A01 T03460016  RH  012%=      5-min Rain = 0
KDC1 211855Z 27012G18KT 35/01 A2993 RMK A01 T03470010  RH  012%=      5-min Rain = 0
KDC1 211856Z 26011KT 34/01 A2992 RMK A01 T03430011  RH  012%=      5-min Rain = 0
KDC1 211857Z 26013KT 34/02 A2992 RMK A01 T03430020  RH  013%=      5-min Rain = 0
KDC1 211858Z 25011KT 34/02 A2992 RMK A01 T03420015  RH  013%=      5-min Rain = 0
KDC1 211859Z 26012KT 34/02 A2992 RMK A01 T03410018  RH  013%=      5-min Rain = 0
KDC1 211900Z 27014G19KT 35/01 A2992 RMK A01 T03450009  RH  012%=      5-min Rain = 0
KDC1 211901Z 24010G17KT 35/02 A2992 RMK A01 T03490024  RH  013%=      5-min Rain = 0
KDC1 211902Z 25009KT 35/03 A2992 RMK A01 T03480026  RH  013%=      5-min Rain = 0
KDC1 211903Z 25010KT 35/02 A2992 RMK A01 T03450018  RH  013%=      5-min Rain = 0
KDC1 211904Z 25008KT 34/02 A2992 RMK A01 T03430015  RH  013%=      5-min Rain = 0
KDC1 211905Z 26011KT 35/02 A2992 RMK A01 T03460019  RH  013%=      5-min Rain = 0
KDC1 211906Z 24012KT 35/03 A2992 RMK A01 T03480028  RH  013%=      5-min Rain = 0
KDC1 211907Z 26014KT 35/02 A2992 RMK A01 T03460021  RH  013%=      5-min Rain = 0
KDC1 211908Z 26013KT 34/01 A2992 RMK A01 T03440009  RH  012%=      5-min Rain = 0
KDC1 211909Z 26010KT 34/01 A2992 RMK A01 T03430007  RH  012%=      5-min Rain = 0
KDC1 211910Z 27010KT 34/00 A2992 RMK A01 T03430002  RH  011%=      5-min Rain = 0
KDC1 211911Z 27009KT 34/00 A2992 RMK A01 T03420003  RH  012%=      5-min Rain = 0
KDC1 211912Z 27011KT 35/01 A2992 RMK A01 T03450006  RH  012%=      5-min Rain = 0
KDC1 211913Z 25012G17KT 35/02 A2992 RMK A01 T03500024  RH  013%=      5-min Rain = 0
KDC1 211914Z 25011KT 35/02 A2992 RMK A01 T03490016  RH  012%=      5-min Rain = 0
KDC1 211915Z 25008KT 35/02 A2992 RMK A01 T03470023  RH  013%=      5-min Rain = 0
KDC1 211916Z 26014KT 35/02 A2992 RMK A01 T03490024  RH  013%=      5-min Rain = 0
KDC1 211917Z 26013KT 35/02 A2992 RMK A01 T03490015  RH  012%=      5-min Rain = 0
KDC1 211918Z 26011KT 35/01 A2991 RMK A01 T03460005  RH  011%=      5-min Rain = 0
KDC1 211919Z 26008KT 34/00 A2991 RMK A01 T03440003  RH  012%=      5-min Rain = 0
KDC1 211920Z 25007KT 34/01 A2991 RMK A01 T03420005  RH  012%=      5-min Rain = 0
KDC1 211921Z 26008G13KT 34/02 A2991 RMK A01 T03430019  RH  013%=      5-min Rain = 0
KDC1 211922Z 26017G23KT 35/01 A2991 RMK A01 T03460011  RH  012%=      5-min Rain = 0
KDC1 211923Z 26019KT 35/01 A2991 RMK A01 T03480012  RH  012%=      5-min Rain = 0
KDC1 211924Z 25018KT 35/01 A2991 RMK A01 T03460010  RH  012%=      5-min Rain = 0
KDC1 211925Z 25017G22KT 35/01 A2991 RMK A01 T03450012  RH  012%=      5-min Rain = 0
KDC1 211926Z 25014KT 34/01 A2991 RMK A01 T03440009  RH  012%=      5-min Rain = 0
KDC1 211927Z 24015KT 34/02 A2991 RMK A01 T03440023  RH  013%=      5-min Rain = 0
KDC1 211928Z 25013KT 34/02 A2991 RMK A01 T03430015  RH  013%=      5-min Rain = 0
KDC1 211929Z 26013KT 34/00 A2991 RMK A01 T03430002  RH  011%=      5-min Rain = 0
KDC1 211930Z 26010KT 34/00 A2991 RMK A01 T03440000  RH  011%=      5-min Rain = 0
KDC1 211931Z 25010KT 34/M00 A2991 RMK A01 T03431003  RH  011%=      5-min Rain = 0
KDC1 211932Z 26011KT 34/01 A2991 RMK A01 T03430008  RH  012%=      5-min Rain = 0
KDC1 211933Z 25010KT 34/03 A2991 RMK A01 T03440026  RH  014%=      5-min Rain = 0
KDC1 211934Z 25007KT 35/01 A2991 RMK A01 T03480014  RH  012%=      5-min Rain = 0
KDC1 211935Z 25009KT 35/01 A2991 RMK A01 T03500011  RH  012%=      5-min Rain = 0
KDC1 211936Z 24013KT 35/03 A2991 RMK A01 T03500034  RH  014%=      5-min Rain = 0
KDC1 211937Z 24011KT 35/03 A2991 RMK A01 T03490029  RH  013%=      5-min Rain = 0
KDC1 211938Z 23006KT 35/02 A2991 RMK A01 T03500023  RH  013%=      5-min Rain = 0
KDC1 211939Z 24009G14KT 35/01 A2991 RMK A01 T03520012  RH  012%=      5-min Rain = 0
KDC1 211940Z 24011KT 35/01 A2991 RMK A01 T03530013  RH  012%=      5-min Rain = 0
KDC1 211941Z 25011G16KT 35/02 A2991 RMK A01 T03520022  RH  013%=      5-min Rain = 0
KDC1 211942Z 24011KT 35/03 A2991 RMK A01 T03480028  RH  013%=      5-min Rain = 0
KDC1 211943Z 25014G19KT 35/03 A299 RMK A01 T03470026  RH  013%=      5-min Rain = 0
KDC1 211944Z 25017KT 35/02 A299 RMK A01 T03470019  RH  013%=      5-min Rain = 0
KDC1 211945Z 25013G19KT 34/02 A299 RMK A01 T03440015  RH  013%=      5-min Rain = 0
KDC1 211946Z 26014KT 34/01 A299 RMK A01 T03430013  RH  012%=      5-min Rain = 0
KDC1 211947Z 24009KT 34/01 A299 RMK A01 T03420013  RH  012%=      5-min Rain = 0
KDC1 211948Z 24012KT 34/02 A299 RMK A01 T03440024  RH  013%=      5-min Rain = 0
KDC1 211949Z 25012KT 35/02 A299 RMK A01 T03460015  RH  012%=      5-min Rain = 0
KDC1 211950Z 24012KT 35/01 A299 RMK A01 T03450014  RH  012%=      5-min Rain = 0
KDC1 211951Z 24008G13KT 34/02 A299 RMK A01 T03440021  RH  013%=      5-min Rain = 0
KDC1 211952Z 25009KT 35/01 A299 RMK A01 T03450010  RH  012%=      5-min Rain = 0
KDC1 211953Z 26010KT 35/02 A299 RMK A01 T03460021  RH  013%=      5-min Rain = 0
KDC1 211954Z 26011KT 35/01 A299 RMK A01 T03490012  RH  012%=      5-min Rain = 0
KDC1 211955Z 25011KT 35/01 A299 RMK A01 T03510006  RH  011%=      5-min Rain = 0
KDC1 211956Z 25013KT 35/02 A299 RMK A01 T03510017  RH  012%=      5-min Rain = 0
KDC1 211957Z 25011KT 35/00 A299 RMK A01 T03490004  RH  011%=      5-min Rain = 0
KDC1 211958Z 25011KT 35/02 A299 RMK A01 T03480024  RH  013%=      5-min Rain = 0
KDC1 211959Z 23009KT 35/04 A299 RMK A01 T03480035  RH  014%=      5-min Rain = 0
KDC1 212000Z 24009KT 35/03 A299 RMK A01 T03500029  RH  013%=      5-min Rain = 0
KDC1 212001Z 23012G18KT 35/01 A299 RMK A01 T03520011  RH  012%=      5-min Rain = 0
KDC1 212002Z 24015KT 35/02 A299 RMK A01 T03510017  RH  012%=      5-min Rain = 0
KDC1 212003Z 24015KT 35/02 A299 RMK A01 T03500024  RH  013%=      5-min Rain = 0
KDC1 212004Z 24011KT 35/03 A299 RMK A01 T03480028  RH  013%=      5-min Rain = 0
KDC1 212005Z 25015KT 35/03 A299 RMK A01 T03490030  RH  014%=      5-min Rain = 0
KDC1 212006Z 24013G18KT 35/02 A299 RMK A01 T03480021  RH  013%=      5-min Rain = 0
KDC1 212007Z 25012KT 35/03 A299 RMK A01 T03470029  RH  014%=      5-min Rain = 0
KDC1 212008Z 25013KT 35/03 A299 RMK A01 T03470028  RH  014%=      5-min Rain = 0
KDC1 212009Z 26011KT 35/02 A299 RMK A01 T03480017  RH  012%=      5-min Rain = 0
KDC1 212010Z 25010KT 35/01 A299 RMK A01 T03490009  RH  012%=      5-min Rain = 0
KDC1 212011Z 24007KT 35/01 A299 RMK A01 T03490014  RH  012%=      5-min Rain = 0
KDC1 212012Z 23006KT 35/02 A299 RMK A01 T03500023  RH  013%=      5-min Rain = 0
KDC1 212013Z 24007KT 35/03 A299 RMK A01 T03520028  RH  013%=      5-min Rain = 0
KDC1 212014Z 24011G16KT 35/03 A299 RMK A01 T03540028  RH  013%=      5-min Rain = 0
KDC1 212015Z 25012G18KT 36/03 A299 RMK A01 T03560028  RH  013%=      5-min Rain = 0
KDC1 212016Z 25012KT 36/03 A299 RMK A01 T03550027  RH  013%=      5-min Rain = 0
KDC1 212017Z 26015KT 35/02 A299 RMK A01 T03530024  RH  013%=      5-min Rain = 0
KDC1 212018Z 25013KT 35/01 A299 RMK A01 T03510009  RH  012%=      5-min Rain = 0
KDC1 212019Z 26014KT 35/01 A299 RMK A01 T03500014  RH  012%=      5-min Rain = 0
KDC1 212020Z 24008G15KT 35/02 A299 RMK A01 T03510020  RH  012%=      5-min Rain = 0
KDC1 212021Z 23011KT 36/02 A299 RMK A01 T03550017  RH  012%=      5-min Rain = 0
KDC1 212022Z 23006KT 36/01 A299 RMK A01 T03550010  RH  011%=      5-min Rain = 0
KDC1 212023Z 24009G16KT 36/02 A299 RMK A01 T03550015  RH  012%=      5-min Rain = 0
KDC1 212024Z 25014G19KT 36/03 A299 RMK A01 T03550030  RH  013%=      5-min Rain = 0
KDC1 212025Z 24015KT 35/02 A299 RMK A01 T03520023  RH  013%=      5-min Rain = 0
KDC1 212026Z 23012KT 35/02 A299 RMK A01 T03500023  RH  013%=      5-min Rain = 0
KDC1 212027Z 24011KT 35/02 A299 RMK A01 T03500019  RH  012%=      5-min Rain = 0
KDC1 212028Z 24015KT 35/03 A299 RMK A01 T03500034  RH  014%=      5-min Rain = 0
KDC1 212029Z 24016KT 35/03 A299 RMK A01 T03500034  RH  014%=      5-min Rain = 0
KDC1 212030Z 25015KT 35/03 A299 RMK A01 T03510025  RH  013%=      5-min Rain = 0
KDC1 212031Z 24012KT 35/03 A299 RMK A01 T03500027  RH  013%=      5-min Rain = 0
KDC1 212032Z 25012KT 35/02 A299 RMK A01 T03500023  RH  013%=      5-min Rain = 0
KDC1 212033Z 23010KT 35/01 A2989 RMK A01 T03500011  RH  012%=      5-min Rain = 0
KDC1 212034Z 25011KT 35/02 A2989 RMK A01 T03490018  RH  012%=      5-min Rain = 0
KDC1 212035Z 25015G20KT 35/02 A2989 RMK A01 T03480019  RH  013%=      5-min Rain = 0
KDC1 212036Z 23010G17KT 35/02 A2989 RMK A01 T03470021  RH  013%=      5-min Rain = 0
KDC1 212037Z 21011KT 35/02 A2989 RMK A01 T03490017  RH  012%=      5-min Rain = 0
KDC1 212038Z 23009KT 35/00 A2989 RMK A01 T03510002  RH  011%=      5-min Rain = 0
KDC1 212039Z 24014G20KT 35/01 A2989 RMK A01 T03500011  RH  012%=      5-min Rain = 0
KDC1 212040Z 24015G20KT 35/01 A2989 RMK A01 T03500011  RH  012%=      5-min Rain = 0
KDC1 212041Z 25013G18KT 35/01 A2989 RMK A01 T03500014  RH  012%=      5-min Rain = 0
KDC1 212042Z 23011G17KT 35/01 A2989 RMK A01 T03490011  RH  012%=      5-min Rain = 0
KDC1 212043Z 22007KT 35/01 A2989 RMK A01 T03510008  RH  012%=      5-min Rain = 0
KDC1 212044Z 23007KT 35/01 A2989 RMK A01 T03510006  RH  011%=      5-min Rain = 0
KDC1 212045Z 24010G16KT 35/02 A2989 RMK A01 T03540020  RH  012%=      5-min Rain = 0
KDC1 212046Z 24011KT 36/03 A2989 RMK A01 T03570026  RH  013%=      5-min Rain = 0
KDC1 212047Z 25011KT 36/02 A2989 RMK A01 T03550021  RH  012%=      5-min Rain = 0
KDC1 212048Z 24009G14KT 35/01 A2989 RMK A01 T03530012  RH  012%=      5-min Rain = 0
KDC1 212049Z 25010KT 35/03 A2989 RMK A01 T03520026  RH  013%=      5-min Rain = 0
KDC1 212050Z 24012KT 35/04 A2989 RMK A01 T03520036  RH  014%=      5-min Rain = 0
KDC1 212051Z 24011KT 35/03 A2989 RMK A01 T03510031  RH  013%=      5-min Rain = 0
KDC1 212052Z 25014G20KT 35/03 A2989 RMK A01 T03500029  RH  013%=      5-min Rain = 0
KDC1 212053Z 24014G21KT 35/02 A2989 RMK A01 T03500017  RH  012%=      5-min Rain = 0
KDC1 212054Z 24008KT 35/01 A2989 RMK A01 T03500013  RH  012%=      5-min Rain = 0
KDC1 212055Z 22006KT 35/02 A2989 RMK A01 T03510018  RH  012%=      5-min Rain = 0
KDC1 212056Z 22008G16KT 35/02 A2989 RMK A01 T03540017  RH  012%=      5-min Rain = 0
KDC1 212057Z 23013G19KT 36/01 A2989 RMK A01 T03550008  RH  011%=      5-min Rain = 0
KDC1 212058Z 21008G14KT 35/01 A2989 RMK A01 T03530005  RH  011%=      5-min Rain = 0
KDC1 212059Z 20010KT 35/01 A2989 RMK A01 T03520009  RH  011%=      5-min Rain = 0
KDC1 212100Z 23012KT 35/02 A2989 RMK A01 T03530015  RH  012%=      5-min Rain = 0
KDC1 212101Z 22012G20KT 35/02 A2989 RMK A01 T03540017  RH  012%=      5-min Rain = 0
KDC1 212102Z 23010G15KT 35/01 A2989 RMK A01 T03540014  RH  012%=      5-min Rain = 0
KDC1 212103Z 21008G16KT 36/02 A2989 RMK A01 T03550015  RH  012%=      5-min Rain = 0
KDC1 212104Z 21010G17KT 36/01 A2989 RMK A01 T03550014  RH  012%=      5-min Rain = 0
KDC1 212105Z 21009G15KT 36/02 A2989 RMK A01 T03550016  RH  012%=      5-min Rain = 0
KDC1 212106Z 20007KT 35/02 A2989 RMK A01 T03540019  RH  012%=      5-min Rain = 0
KDC1 212107Z 20008KT 35/02 A2989 RMK A01 T03540023  RH  013%=      5-min Rain = 0
KDC1 212108Z 20007G12KT 35/03 A2989 RMK A01 T03540027  RH  013%=      5-min Rain = 0
KDC1 212109Z 22009G16KT 36/03 A2989 RMK A01 T03550025  RH  013%=      5-min Rain = 0
KDC1 212110Z 22009G14KT 36/02 A2989 RMK A01 T03550020  RH  012%=      5-min Rain = 0
KDC1 212111Z 23008KT 36/02 A2989 RMK A01 T03570021  RH  012%=      5-min Rain = 0
KDC1 212112Z 22011G16KT 36/02 A2989 RMK A01 T03600017  RH  012%=      5-min Rain = 0
KDC1 212113Z 23008G14KT 36/02 A2989 RMK A01 T03590017  RH  012%=      5-min Rain = 0
KDC1 212114Z 23007KT 36/02 A2989 RMK A01 T03590022  RH  012%=      5-min Rain = 0
KDC1 212115Z 20005KT 36/03 A2988 RMK A01 T03600029  RH  013%=      5-min Rain = 0
KDC1 212116Z 20005KT 36/02 A2988 RMK A01 T03590022  RH  012%=      5-min Rain = 0
KDC1 212117Z 23006KT 36/02 A2988 RMK A01 T03570016  RH  012%=      5-min Rain = 0
KDC1 212118Z 24006KT 36/02 A2988 RMK A01 T03570016  RH  012%=      5-min Rain = 0
KDC1 212119Z 21006KT 36/02 A2988 RMK A01 T03570018  RH  012%=      5-min Rain = 0
KDC1 212120Z 21007KT 36/03 A2988 RMK A01 T03590025  RH  012%=      5-min Rain = 0
KDC1 212121Z 22008KT 36/02 A2988 RMK A01 T03580020  RH  012%=      5-min Rain = 0
KDC1 212122Z 23011G16KT 36/02 A2988 RMK A01 T03580016  RH  012%=      5-min Rain = 0
KDC1 212123Z 24014KT 36/03 A2988 RMK A01 T03570031  RH  013%=      5-min Rain = 0
KDC1 212124Z 24015G20KT 36/03 A2988 RMK A01 T03550033  RH  013%=      5-min Rain = 0
KDC1 212125Z 24015KT 35/02 A2988 RMK A01 T03530024  RH  013%=      5-min Rain = 0
KDC1 212126Z 25015KT 35/03 A2988 RMK A01 T03510030  RH  013%=      5-min Rain = 0
KDC1 212127Z 26013KT 35/03 A2988 RMK A01 T03490025  RH  013%=      5-min Rain = 0
KDC1 212128Z 24010G15KT 35/03 A2988 RMK A01 T03510031  RH  014%=      5-min Rain = 0
KDC1 212129Z 24010KT 35/04 A2988 RMK A01 T03530036  RH  014%=      5-min Rain = 0
KDC1 212130Z 25012KT 35/04 A2988 RMK A01 T03540042  RH  014%=      5-min Rain = 0
KDC1 212131Z 24014G23KT 35/04 A2988 RMK A01 T03520041  RH  014%=      5-min Rain = 0
KDC1 212132Z 24012KT 35/04 A2988 RMK A01 T03510036  RH  014%=      5-min Rain = 0
KDC1 212133Z 24015G20KT 35/04 A2988 RMK A01 T03510036  RH  014%=      5-min Rain = 0
KDC1 212134Z 25012G18KT 35/04 A2988 RMK A01 T03510042  RH  015%=      5-min Rain = 0
KDC1 212135Z 21013G22KT 35/04 A2987 RMK A01 T03510038  RH  014%=      5-min Rain = 0
KDC1 212136Z 23008G13KT 35/03 A2987 RMK A01 T03510027  RH  013%=      5-min Rain = 0
KDC1 212137Z 24012KT 36/03 A2988 RMK A01 T03560029  RH  013%=      5-min Rain = 0
KDC1 212138Z 23011KT 36/03 A2987 RMK A01 T03570027  RH  013%=      5-min Rain = 0
KDC1 212139Z 23008G13KT 36/03 A2988 RMK A01 T03560026  RH  013%=      5-min Rain = 0
KDC1 212140Z 24010G15KT 36/03 A2987 RMK A01 T03570026  RH  013%=      5-min Rain = 0
KDC1 212141Z 23009G15KT 36/03 A2987 RMK A01 T03580026  RH  013%=      5-min Rain = 0
KDC1 212142Z 23012G17KT 36/03 A2988 RMK A01 T03590025  RH  012%=      5-min Rain = 0
KDC1 212143Z 24013G18KT 36/03 A2987 RMK A01 T03590030  RH  013%=      5-min Rain = 0
KDC1 212144Z 25012KT 36/04 A2987 RMK A01 T03560044  RH  014%=      5-min Rain = 0
KDC1 212145Z 25015KT 35/04 A2987 RMK A01 T03530039  RH  014%=      5-min Rain = 0
KDC1 212146Z 25015KT 35/03 A2987 RMK A01 T03510033  RH  014%=      5-min Rain = 0
KDC1 212147Z 24013KT 35/04 A2987 RMK A01 T03500038  RH  014%=      5-min Rain = 0
KDC1 212148Z 25014KT 35/04 A2987 RMK A01 T03500039  RH  014%=      5-min Rain = 0
KDC1 212149Z 26017KT 35/02 A2987 RMK A01 T03520024  RH  013%=      5-min Rain = 0
KDC1 212150Z 26014KT 36/03 A2987 RMK A01 T03550029  RH  013%=      5-min Rain = 0
KDC1 212151Z 24010KT 36/03 A2987 RMK A01 T03560029  RH  013%=      5-min Rain = 0
KDC1 212152Z 23008KT 36/04 A2987 RMK A01 T03550039  RH  014%=      5-min Rain = 0
KDC1 212153Z 24012KT 36/03 A2987 RMK A01 T03550033  RH  013%=      5-min Rain = 0
KDC1 212154Z 24011KT 36/02 A2987 RMK A01 T03550024  RH  013%=      5-min Rain = 0
KDC1 212155Z 22007KT 35/04 A2987 RMK A01 T03530040  RH  014%=      5-min Rain = 0
KDC1 212156Z 21007KT 35/04 A2987 RMK A01 T03530037  RH  014%=      5-min Rain = 0
KDC1 212157Z 21010G15KT 35/03 A2987 RMK A01 T03540027  RH  013%=      5-min Rain = 0
KDC1 212158Z 23008KT 36/02 A2987 RMK A01 T03550022  RH  012%=      5-min Rain = 0
KDC1 212159Z 24013G18KT 36/02 A2987 RMK A01 T03570024  RH  012%=      5-min Rain = 0
KDC1 212200Z 23010G15KT 36/03 A2987 RMK A01 T03570028  RH  013%=      5-min Rain = 0
KDC1 212201Z 24011G19KT 36/02 A2987 RMK A01 T03580020  RH  012%=      5-min Rain = 0
KDC1 212202Z 25014G20KT 36/03 A2987 RMK A01 T03560025  RH  013%=      5-min Rain = 0
KDC1 212203Z 25016KT 36/04 A2987 RMK A01 T03550038  RH  014%=      5-min Rain = 0
KDC1 212204Z 25015KT 35/04 A2987 RMK A01 T03520044  RH  015%=      5-min Rain = 0
KDC1 212205Z 25011KT 35/04 A2987 RMK A01 T03500037  RH  014%=      5-min Rain = 0
KDC1 212206Z 24009G14KT 35/04 A2987 RMK A01 T03490038  RH  014%=      5-min Rain = 0
KDC1 212207Z 23008KT 35/03 A2987 RMK A01 T03490034  RH  014%=      5-min Rain = 0
KDC1 212208Z 24008KT 35/04 A2987 RMK A01 T03510037  RH  014%=      5-min Rain = 0
KDC1 212209Z 24007KT 35/03 A2986 RMK A01 T03530029  RH  013%=      5-min Rain = 0
KDC1 212210Z 24008G16KT 36/03 A2986 RMK A01 T03550033  RH  013%=      5-min Rain = 0
KDC1 212211Z 22008G16KT 36/03 A2986 RMK A01 T03590031  RH  013%=      5-min Rain = 0
KDC1 212212Z 23010G15KT 36/02 A2986 RMK A01 T03600021  RH  012%=      5-min Rain = 0
KDC1 212213Z 24013G19KT 36/03 A2986 RMK A01 T03590027  RH  013%=      5-min Rain = 0
KDC1 212214Z 24013G18KT 36/04 A2986 RMK A01 T03560038  RH  014%=      5-min Rain = 0
KDC1 212215Z 23009KT 36/04 A2986 RMK A01 T03550036  RH  014%=      5-min Rain = 0
KDC1 212216Z 24011G16KT 36/04 A2986 RMK A01 T03550040  RH  014%=      5-min Rain = 0
KDC1 212217Z 24015G21KT 36/04 A2986 RMK A01 T03550037  RH  014%=      5-min Rain = 0
KDC1 212218Z 25014KT 35/04 A2986 RMK A01 T03540041  RH  014%=      5-min Rain = 0
KDC1 212219Z 24016G23KT 35/03 A2986 RMK A01 T03520033  RH  014%=      5-min Rain = 0
KDC1 212220Z 25012KT 35/03 A2986 RMK A01 T03520031  RH  013%=      5-min Rain = 0
KDC1 212221Z 24012KT 35/04 A2986 RMK A01 T03520035  RH  014%=      5-min Rain = 0
KDC1 212222Z 24015G22KT 35/03 A2986 RMK A01 T03510029  RH  013%=      5-min Rain = 0
KDC1 212223Z 23012G18KT 35/04 A2986 RMK A01 T03530035  RH  014%=      5-min Rain = 0
KDC1 212224Z 23013G20KT 36/03 A2986 RMK A01 T03550027  RH  013%=      5-min Rain = 0
KDC1 212225Z 25017G22KT 36/03 A2986 RMK A01 T03560025  RH  013%=      5-min Rain = 0
KDC1 212226Z 25017G24KT 35/03 A2986 RMK A01 T03540029  RH  013%=      5-min Rain = 0
KDC1 212227Z 25013KT 35/02 A2986 RMK A01 T03530023  RH  013%=      5-min Rain = 0
KDC1 212228Z 25013G19KT 35/03 A2986 RMK A01 T03530033  RH  014%=      5-min Rain = 0
KDC1 212229Z 25016KT 35/04 A2986 RMK A01 T03530036  RH  014%=      5-min Rain = 0
KDC1 212230Z 26017KT 35/03 A2986 RMK A01 T03510032  RH  014%=      5-min Rain = 0
KDC1 212231Z 25014KT 35/03 A2986 RMK A01 T03510029  RH  013%=      5-min Rain = 0
KDC1 212232Z 25012KT 35/03 A2986 RMK A01 T03510033  RH  014%=      5-min Rain = 0
KDC1 212233Z 25010KT 35/04 A2986 RMK A01 T03520041  RH  014%=      5-min Rain = 0
KDC1 212234Z 24010KT 35/04 A2986 RMK A01 T03520035  RH  014%=      5-min Rain = 0
KDC1 212235Z 24008KT 35/04 A2986 RMK A01 T03510035  RH  014%=      5-min Rain = 0
KDC1 212236Z 24007KT 35/04 A2986 RMK A01 T03510037  RH  014%=      5-min Rain = 0
KDC1 212237Z 25009KT 35/04 A2985 RMK A01 T03510035  RH  014%=      5-min Rain = 0
KDC1 212238Z 25009G14KT 35/05 A2985 RMK A01 T03510046  RH  015%=      5-min Rain = 0
KDC1 212239Z 25014G19KT 35/05 A2985 RMK A01 T03520050  RH  015%=      5-min Rain = 0
KDC1 212240Z 25015KT 35/02 A2985 RMK A01 T03530023  RH  013%=      5-min Rain = 0
KDC1 212241Z 26014KT 35/02 A2985 RMK A01 T03520020  RH  012%=      5-min Rain = 0
KDC1 212242Z 26020KT 35/02 A2985 RMK A01 T03520024  RH  013%=      5-min Rain = 0
KDC1 212243Z 24016G21KT 35/03 A2985 RMK A01 T03510031  RH  013%=      5-min Rain = 0
KDC1 212244Z 24016G22KT 35/04 A2985 RMK A01 T03500039  RH  014%=      5-min Rain = 0
KDC1 212245Z 24015KT 35/04 A2985 RMK A01 T03500039  RH  014%=      5-min Rain = 0
KDC1 212246Z 23015G21KT 35/03 A2985 RMK A01 T03490031  RH  014%=      5-min Rain = 0
KDC1 212247Z 23012KT 35/02 A2985 RMK A01 T03490024  RH  013%=      5-min Rain = 0
KDC1 212248Z 24009G14KT 35/02 A2985 RMK A01 T03510019  RH  012%=      5-min Rain = 0
KDC1 212249Z 25010KT 35/03 A2985 RMK A01 T03530025  RH  013%=      5-min Rain = 0
KDC1 212250Z 25009KT 35/04 A2985 RMK A01 T03520035  RH  014%=      5-min Rain = 0
KDC1 212251Z 26010G15KT 35/04 A2985 RMK A01 T03510040  RH  014%=      5-min Rain = 0
KDC1 212252Z 25012G17KT 35/03 A2985 RMK A01 T03510028  RH  013%=      5-min Rain = 0
KDC1 212253Z 24012KT 35/04 A2985 RMK A01 T03520038  RH  014%=      5-min Rain = 0
KDC1 212254Z 24014G21KT 35/04 A2985 RMK A01 T03520039  RH  014%=      5-min Rain = 0
KDC1 212255Z 23013G19KT 35/03 A2985 RMK A01 T03510031  RH  013%=      5-min Rain = 0
KDC1 212256Z 24014G20KT 35/02 A2985 RMK A01 T03510022  RH  013%=      5-min Rain = 0
KDC1 212257Z 24012KT 35/02 A2985 RMK A01 T03520023  RH  013%=      5-min Rain = 0
KDC1 212258Z 24010KT 35/03 A2985 RMK A01 T03520030  RH  013%=      5-min Rain = 0
KDC1 212259Z 24008KT 35/03 A2985 RMK A01 T03520033  RH  014%=      5-min Rain = 0
KDC1 212300Z 25010G15KT 35/05 A2985 RMK A01 T03530053  RH  016%=      5-min Rain = 0
KDC1 212301Z 25013G18KT 35/05 A2985 RMK A01 T03530050  RH  015%=      5-min Rain = 0
KDC1 212302Z 25018G23KT 35/03 A2985 RMK A01 T03500034  RH  014%=      5-min Rain = 0
KDC1 212303Z 25018G23KT 35/03 A2985 RMK A01 T03500027  RH  013%=      5-min Rain = 0
KDC1 212304Z 25018KT 35/02 A2985 RMK A01 T03500024  RH  013%=      5-min Rain = 0
KDC1 212305Z 25015G20KT 35/03 A2985 RMK A01 T03500027  RH  013%=      5-min Rain = 0
KDC1 212306Z 25012KT 35/03 A2985 RMK A01 T03490027  RH  013%=      5-min Rain = 0
KDC1 212307Z 24011G16KT 35/03 A2984 RMK A01 T03490031  RH  014%=      5-min Rain = 0
KDC1 212308Z 24011G16KT 35/03 A2985 RMK A01 T03490029  RH  013%=      5-min Rain = 0
KDC1 212309Z 25010KT 35/03 A2984 RMK A01 T03500027  RH  013%=      5-min Rain = 0
KDC1 212310Z 24011KT 35/03 A2984 RMK A01 T03520025  RH  013%=      5-min Rain = 0
KDC1 212311Z 24010KT 35/04 A2984 RMK A01 T03520040  RH  014%=      5-min Rain = 0
KDC1 212312Z 25018G26KT 35/04 A2984 RMK A01 T03510035  RH  014%=      5-min Rain = 0
KDC1 212313Z 25018KT 35/03 A2984 RMK A01 T03510028  RH  013%=      5-min Rain = 0
KDC1 212314Z 25019KT 35/03 A2984 RMK A01 T03490031  RH  014%=      5-min Rain = 0
KDC1 212315Z 25018KT 35/03 A2984 RMK A01 T03470030  RH  014%=      5-min Rain = 0
KDC1 212316Z 24014KT 35/04 A2984 RMK A01 T03460035  RH  014%=      5-min Rain = 0
KDC1 212317Z 25017KT 35/03 A2984 RMK A01 T03460028  RH  014%=      5-min Rain = 0
KDC1 212318Z 25015KT 35/02 A2984 RMK A01 T03470024  RH  013%=      5-min Rain = 0
KDC1 212319Z 25013G19KT 35/04 A2984 RMK A01 T03480037  RH  014%=      5-min Rain = 0
KDC1 212320Z 22010KT 35/03 A2984 RMK A01 T03480031  RH  014%=      5-min Rain = 0
KDC1 212321Z 22010KT 35/02 A2984 RMK A01 T03500021  RH  013%=      5-min Rain = 0
KDC1 212322Z 22010G15KT 35/01 A2984 RMK A01 T03520014  RH  012%=      5-min Rain = 0
KDC1 212323Z 22008G18KT 35/02 A2984 RMK A01 T03530015  RH  012%=      5-min Rain = 0
KDC1 212324Z 24016G21KT 36/02 A2984 RMK A01 T03550021  RH  012%=      5-min Rain = 0
KDC1 212325Z 25015KT 35/03 A2984 RMK A01 T03520030  RH  013%=      5-min Rain = 0
KDC1 212326Z 25014KT 35/02 A2984 RMK A01 T03490023  RH  013%=      5-min Rain = 0
KDC1 212327Z 25017G22KT 35/03 A2984 RMK A01 T03490030  RH  014%=      5-min Rain = 0
KDC1 212328Z 25017G24KT 35/02 A2984 RMK A01 T03480023  RH  013%=      5-min Rain = 0
KDC1 212329Z 24015G20KT 35/03 A2984 RMK A01 T03470025  RH  013%=      5-min Rain = 0
KDC1 212330Z 25014G19KT 35/02 A2984 RMK A01 T03470024  RH  013%=      5-min Rain = 0
KDC1 212331Z 25014G21KT 35/03 A2983 RMK A01 T03460032  RH  014%=      5-min Rain = 0
KDC1 212332Z 25015G22KT 35/04 A2983 RMK A01 T03470035  RH  014%=      5-min Rain = 0
KDC1 212333Z 24014KT 35/03 A2983 RMK A01 T03460030  RH  014%=      5-min Rain = 0
KDC1 212334Z 25015KT 35/03 A2983 RMK A01 T03470030  RH  014%=      5-min Rain = 0
KDC1 212335Z 24013KT 35/02 A2984 RMK A01 T03470023  RH  013%=      5-min Rain = 0
KDC1 212336Z 23010KT 35/04 A2983 RMK A01 T03460036  RH  014%=      5-min Rain = 0
KDC1 212337Z 24007KT 35/03 A2983 RMK A01 T03460029  RH  014%=      5-min Rain = 0
KDC1 212338Z 23009G14KT 35/02 A2983 RMK A01 T03490021  RH  013%=      5-min Rain = 0
KDC1 212339Z 22009KT 35/01 A2983 RMK A01 T03510011  RH  012%=      5-min Rain = 0
KDC1 212340Z 21007G12KT 35/01 A2983 RMK A01 T03510012  RH  012%=      5-min Rain = 0
KDC1 212341Z 20007G12KT 35/02 A2983 RMK A01 T03510015  RH  012%=      5-min Rain = 0
KDC1 212342Z 20005G11KT 35/02 A2983 RMK A01 T03510015  RH  012%=      5-min Rain = 0
KDC1 212343Z 22005KT 35/02 A2983 RMK A01 T03520020  RH  012%=      5-min Rain = 0
KDC1 212344Z 23010G15KT 35/02 A2983 RMK A01 T03530019  RH  012%=      5-min Rain = 0
KDC1 212345Z 22008G15KT 35/02 A2983 RMK A01 T03540015  RH  012%=      5-min Rain = 0
KDC1 212346Z 22008G14KT 35/02 A2983 RMK A01 T03540016  RH  012%=      5-min Rain = 0
KDC1 212347Z 21008G13KT 35/02 A2983 RMK A01 T03540015  RH  012%=      5-min Rain = 0
KDC1 212348Z 23012KT 36/01 A2983 RMK A01 T03550012  RH  012%=      5-min Rain = 0
KDC1 212349Z 24011KT 36/01 A2983 RMK A01 T03550013  RH  012%=      5-min Rain = 0
KDC1 212350Z 24015KT 35/02 A2983 RMK A01 T03540024  RH  013%=      5-min Rain = 0
KDC1 212351Z 25012KT 35/03 A2983 RMK A01 T03500033  RH  014%=      5-min Rain = 0
KDC1 212352Z 25013KT 35/03 A2983 RMK A01 T03470034  RH  014%=      5-min Rain = 0
KDC1 212353Z 25011KT 35/03 A2983 RMK A01 T03450027  RH  014%=      5-min Rain = 0
KDC1 212354Z 25013KT 35/03 A2983 RMK A01 T03450028  RH  014%=      5-min Rain = 0
KDC1 212355Z 25015KT 34/02 A2983 RMK A01 T03440024  RH  013%=      5-min Rain = 0
KDC1 212356Z 25012KT 34/02 A2983 RMK A01 T03430023  RH  013%=      5-min Rain = 0
KDC1 212357Z 24012G18KT 34/02 A2983 RMK A01 T03440019  RH  013%=      5-min Rain = 0
KDC1 212358Z 25017KT 35/02 A2983 RMK A01 T03450015  RH  012%=      5-min Rain = 0
KDC1 212359Z 24014G19KT 35/01 A2983 RMK A01 T03460012  RH  012%=      5-min Rain = 0
KDC1 220000Z 24011KT 35/02 A2982 RMK A01 T03460019  RH  013%=      5-min Rain = 0
KDC1 220001Z 24011KT 35/01 A2983 RMK A01 T03470014  RH  012%=      5-min Rain = 0
KDC1 220002Z 24011KT 35/02 A2982 RMK A01 T03460021  RH  013%=      5-min Rain = 0
KDC1 220003Z 25010KT 35/03 A2983 RMK A01 T03450033  RH  014%=      5-min Rain = 0
KDC1 220004Z 24010KT 34/03 A2983 RMK A01 T03430034  RH  014%=      5-min Rain = 0
KDC1 220005Z 24011KT 34/03 A2983 RMK A01 T03430030  RH  014%=      5-min Rain = 0
KDC1 220006Z 24011G16KT 34/03 A2983 RMK A01 T03430031  RH  014%=      5-min Rain = 0
KDC1 220007Z 23009KT 34/03 A2983 RMK A01 T03430026  RH  014%=      5-min Rain = 0
KDC1 220008Z 23010G15KT 35/01 A2982 RMK A01 T03450008  RH  012%=      5-min Rain = 0
KDC1 220009Z 24011G17KT 35/01 A2983 RMK A01 T03470008  RH  012%=      5-min Rain = 0
KDC1 220010Z 24013KT 35/02 A2983 RMK A01 T03480015  RH  012%=      5-min Rain = 0
KDC1 220011Z 25011KT 35/02 A2982 RMK A01 T03470023  RH  013%=      5-min Rain = 0
KDC1 220012Z 25011KT 35/02 A2982 RMK A01 T03450020  RH  013%=      5-min Rain = 0
KDC1 220013Z 25016KT 35/01 A2982 RMK A01 T03450013  RH  012%=      5-min Rain = 0
KDC1 220014Z 25017KT 35/01 A2982 RMK A01 T03450007  RH  012%=      5-min Rain = 0
KDC1 220015Z 26015KT 34/01 A2982 RMK A01 T03440009  RH  012%=      5-min Rain = 0
KDC1 220016Z 26015KT 34/01 A2982 RMK A01 T03440008  RH  012%=      5-min Rain = 0
KDC1 220017Z 26013KT 34/M00 A2982 RMK A01 T03441002  RH  011%=      5-min Rain = 0
KDC1 220018Z 25012KT 35/00 A2982 RMK A01 T03450003  RH  011%=      5-min Rain = 0
KDC1 220019Z 25010KT 35/01 A2982 RMK A01 T03460011  RH  012%=      5-min Rain = 0
KDC1 220020Z 25010KT 34/02 A2982 RMK A01 T03440022  RH  013%=      5-min Rain = 0
KDC1 220021Z 25011KT 34/02 A2982 RMK A01 T03440016  RH  013%=      5-min Rain = 0
KDC1 220022Z 25014KT 34/02 A2982 RMK A01 T03420016  RH  013%=      5-min Rain = 0
KDC1 220023Z 27014G19KT 34/01 A2982 RMK A01 T03410009  RH  012%=      5-min Rain = 0
KDC1 220024Z 27019KT 34/M01 A2982 RMK A01 T03431007  RH  011%=      5-min Rain = 0
KDC1 220025Z 26016KT 35/M01 A2982 RMK A01 T03471014  RH  010%=      5-min Rain = 0
KDC1 220026Z 26014KT 35/M01 A2982 RMK A01 T03491009  RH  010%=      5-min Rain = 0
KDC1 220027Z 26013KT 35/M01 A2982 RMK A01 T03491007  RH  010%=      5-min Rain = 0
KDC1 220028Z 26014KT 35/M00 A2982 RMK A01 T03471001  RH  011%=      5-min Rain = 0
KDC1 220029Z 26015KT 35/00 A2982 RMK A01 T03460001  RH  011%=      5-min Rain = 0
KDC1 220030Z 25014KT 35/00 A2982 RMK A01 T03460002  RH  011%=      5-min Rain = 0
KDC1 220031Z 26015KT 34/00 A2982 RMK A01 T03440003  RH  012%=      5-min Rain = 0
KDC1 220032Z 25014KT 34/00 A2982 RMK A01 T03430003  RH  012%=      5-min Rain = 0
KDC1 220033Z 25012KT 34/01 A2982 RMK A01 T03410009  RH  012%=      5-min Rain = 0
KDC1 220034Z 24010KT 34/01 A2982 RMK A01 T03400010  RH  012%=      5-min Rain = 0
KDC1 220035Z 25010KT 34/01 A2982 RMK A01 T03400011  RH  012%=      5-min Rain = 0
KDC1 220036Z 26016KT 34/01 A2982 RMK A01 T03390009  RH  012%=      5-min Rain = 0
KDC1 220037Z 26017KT 34/M00 A2982 RMK A01 T03401002  RH  011%=      5-min Rain = 0
KDC1 220038Z 26017G22KT 34/M01 A2982 RMK A01 T03411005  RH  011%=      5-min Rain = 0
KDC1 220039Z 26016KT 34/M01 A2982 RMK A01 T03411012  RH  010%=      5-min Rain = 0
KDC1 220040Z 25013KT 34/M01 A2982 RMK A01 T03431014  RH  010%=      5-min Rain = 0
KDC1 220041Z 25013KT 34/M00 A2982 RMK A01 T03431001  RH  011%=      5-min Rain = 0
KDC1 220042Z 25013KT 34/00 A2982 RMK A01 T03410004  RH  012%=      5-min Rain = 0
KDC1 220043Z 25012G18KT 34/01 A2982 RMK A01 T03410009  RH  012%=      5-min Rain = 0
KDC1 220044Z 25013KT 34/01 A2982 RMK A01 T03390006  RH  012%=      5-min Rain = 0
KDC1 220045Z 26013KT 34/01 A2982 RMK A01 T03380010  RH  012%=      5-min Rain = 0
KDC1 220046Z 26012G19KT 34/01 A2982 RMK A01 T03370008  RH  012%=      5-min Rain = 0
KDC1 220047Z 27016KT 34/M00 A2982 RMK A01 T03371003  RH  011%=      5-min Rain = 0
KDC1 220048Z 27019KT 34/M02 A2981 RMK A01 T03411018  RH  010%=      5-min Rain = 0
KDC1 220049Z 26018KT 34/M02 A2981 RMK A01 T03441018  RH  010%=      5-min Rain = 0
KDC1 220050Z 25014KT 34/M01 A2982 RMK A01 T03441006  RH  011%=      5-min Rain = 0
KDC1 220051Z 26012KT 34/M00 A2981 RMK A01 T03411002  RH  011%=      5-min Rain = 0
KDC1 220052Z 25012KT 34/M00 A2981 RMK A01 T03401003  RH  011%=      5-min Rain = 0
KDC1 220053Z 26012G17KT 34/M01 A2981 RMK A01 T03391006  RH  011%=      5-min Rain = 0
KDC1 220054Z 27013KT 34/M01 A2981 RMK A01 T03401005  RH  011%=      5-min Rain = 0
KDC1 220055Z 27013KT 34/M02 A2981 RMK A01 T03411016  RH  010%=      5-min Rain = 0
KDC1 220056Z 26011KT 34/M01 A2981 RMK A01 T03431010  RH  010%=      5-min Rain = 0
KDC1 220057Z 26011KT 34/M00 A2981 RMK A01 T03421001  RH  011%=      5-min Rain = 0
KDC1 220058Z 26011KT 34/00 A2981 RMK A01 T03390003  RH  012%=      5-min Rain = 0
KDC1 220059Z 25012KT 34/00 A2981 RMK A01 T03370000  RH  012%=      5-min Rain = 0
KDC1 220100Z 25011KT 34/M00 A2981 RMK A01 T03371003  RH  011%=      5-min Rain = 0
KDC1 220101Z 26012G17KT 34/M00 A2981 RMK A01 T03371001  RH  012%=      5-min Rain = 0
KDC1 220102Z 26014KT 34/M00 A2981 RMK A01 T03371004  RH  011%=      5-min Rain = 0
KDC1 220103Z 25017KT 34/M01 A2981 RMK A01 T03371008  RH  011%=      5-min Rain = 0
KDC1 220104Z 25013KT 34/M01 A2981 RMK A01 T03371008  RH  011%=      5-min Rain = 0
KDC1 220105Z 26013KT 34/00 A2981 RMK A01 T03370001  RH  012%=      5-min Rain = 0
KDC1 220106Z 26014KT 34/M00 A2981 RMK A01 T03361001  RH  012%=      5-min Rain = 0
KDC1 220107Z 26014KT 34/M01 A2981 RMK A01 T03361007  RH  011%=      5-min Rain = 0
KDC1 220108Z 26012KT 34/M01 A2981 RMK A01 T03361008  RH  011%=      5-min Rain = 0
KDC1 220109Z 25013KT 34/M01 A2981 RMK A01 T03361008  RH  011%=      5-min Rain = 0
KDC1 220110Z 26011KT 34/M01 A2981 RMK A01 T03361005  RH  011%=      5-min Rain = 0
KDC1 220111Z 26011KT 34/M00 A2981 RMK A01 T03351001  RH  012%=      5-min Rain = 0
KDC1 220112Z 26012KT 33/00 A2981 RMK A01 T03340001  RH  012%=      5-min Rain = 0
KDC1 220113Z 26014KT 33/M00 A2981 RMK A01 T03331003  RH  012%=      5-min Rain = 0
KDC1 220114Z 26011KT 33/M00 A2981 RMK A01 T03331003  RH  012%=      5-min Rain = 0
KDC1 220115Z 26013KT 33/M00 A2981 RMK A01 T03331004  RH  012%=      5-min Rain = 0
KDC1 220116Z 25013KT 33/M01 A2981 RMK A01 T03331005  RH  012%=      5-min Rain = 0
KDC1 220117Z 25014KT 33/M00 A2981 RMK A01 T03331004  RH  012%=      5-min Rain = 0
KDC1 220118Z 25016KT 33/M01 A2981 RMK A01 T03331008  RH  011%=      5-min Rain = 0
KDC1 220119Z 25013KT 33/M01 A2981 RMK A01 T03331009  RH  011%=      5-min Rain = 0
KDC1 220120Z 26011KT 33/M00 A2981 RMK A01 T03331003  RH  012%=      5-min Rain = 0
KDC1 220121Z 25011KT 33/M00 A2981 RMK A01 T03321002  RH  012%=      5-min Rain = 0
KDC1 220122Z 26014KT 33/M00 A2981 RMK A01 T03311003  RH  012%=      5-min Rain = 0
KDC1 220123Z 26016KT 33/M01 A2981 RMK A01 T03311010  RH  011%=      5-min Rain = 0
KDC1 220124Z 26013KT 33/M01 A2981 RMK A01 T03321012  RH  011%=      5-min Rain = 0
KDC1 220125Z 26013KT 33/M01 A2981 RMK A01 T03321006  RH  012%=      5-min Rain = 0
KDC1 220126Z 26012KT 33/M01 A2981 RMK A01 T03311006  RH  012%=      5-min Rain = 0
KDC1 220127Z 26011KT 33/M01 A2981 RMK A01 T03301005  RH  012%=      5-min Rain = 0
KDC1 220128Z 26014KT 33/M01 A2981 RMK A01 T03291006  RH  012%=      5-min Rain = 0
KDC1 220129Z 26016KT 33/M01 A2981 RMK A01 T03291011  RH  011%=      5-min Rain = 0
KDC1 220130Z 27013KT 33/M02 A2981 RMK A01 T03301015  RH  011%=      5-min Rain = 0
KDC1 220131Z 27012KT 33/M01 A2982 RMK A01 T03311013  RH  011%=      5-min Rain = 0
KDC1 220132Z 27013KT 33/M02 A2981 RMK A01 T03301015  RH  011%=      5-min Rain = 0
KDC1 220133Z 27011KT 33/M01 A2982 RMK A01 T03301011  RH  011%=      5-min Rain = 0
KDC1 220134Z 27014KT 33/M02 A2982 RMK A01 T03301017  RH  011%=      5-min Rain = 0
KDC1 220135Z 27014KT 33/M02 A2982 RMK A01 T03301019  RH  011%=      5-min Rain = 0
KDC1 220136Z 27012KT 33/M02 A2982 RMK A01 T03301019  RH  011%=      5-min Rain = 0
KDC1 220137Z 27011KT 33/M02 A2982 RMK A01 T03301017  RH  011%=      5-min Rain = 0
KDC1 220138Z 27012KT 33/M02 A2982 RMK A01 T03291015  RH  011%=      5-min Rain = 0
KDC1 220139Z 27011KT 33/M01 A2982 RMK A01 T03281014  RH  011%=      5-min Rain = 0
KDC1 220140Z 27010KT 33/M01 A2982 RMK A01 T03271012  RH  011%=      5-min Rain = 0
KDC1 220141Z 27012KT 33/M01 A2982 RMK A01 T03261014  RH  011%=      5-min Rain = 0
KDC1 220142Z 27013KT 33/M02 A2982 RMK A01 T03261015  RH  011%=      5-min Rain = 0
KDC1 220143Z 27015KT 33/M02 A2982 RMK A01 T03261018  RH  011%=      5-min Rain = 0
KDC1 220144Z 27014KT 33/M02 A2982 RMK A01 T03271018  RH  011%=      5-min Rain = 0
KDC1 220145Z 27013KT 33/M02 A2982 RMK A01 T03281016  RH  011%=      5-min Rain = 0
KDC1 220146Z 27015KT 33/M02 A2982 RMK A01 T03271017  RH  011%=      5-min Rain = 0
KDC1 220147Z 27014KT 33/M02 A2982 RMK A01 T03271018  RH  011%=      5-min Rain = 0
KDC1 220148Z 27014KT 33/M02 A2982 RMK A01 T03271017  RH  011%=      5-min Rain = 0
KDC1 220149Z 27013KT 33/M02 A2982 RMK A01 T03261017  RH  011%=      5-min Rain = 0
KDC1 220150Z 27012KT 33/M02 A2982 RMK A01 T03251015  RH  011%=      5-min Rain = 0
KDC1 220151Z 27011KT 32/M02 A2983 RMK A01 T03241015  RH  011%=      5-min Rain = 0
KDC1 220152Z 27012KT 32/M02 A2983 RMK A01 T03221015  RH  011%=      5-min Rain = 0
KDC1 220153Z 27012KT 32/M02 A2983 RMK A01 T03221015  RH  011%=      5-min Rain = 0
KDC1 220154Z 26012KT 32/M02 A2983 RMK A01 T03221017  RH  011%=      5-min Rain = 0
KDC1 220155Z 27011KT 32/M02 A2983 RMK A01 T03221016  RH  011%=      5-min Rain = 0
KDC1 220156Z 27010KT 32/M02 A2983 RMK A01 T03231015  RH  011%=      5-min Rain = 0
KDC1 220157Z 27010KT 32/M01 A2983 RMK A01 T03201012  RH  012%=      5-min Rain = 0
KDC1 220158Z 27010KT 32/M01 A2983 RMK A01 T03191008  RH  012%=      5-min Rain = 0
KDC1 220159Z 27009KT 32/M01 A2983 RMK A01 T03161006  RH  013%=      5-min Rain = 0
KDC1 220200Z 27009KT 31/M01 A2983 RMK A01 T03141006  RH  013%=      5-min Rain = 0
KDC1 220201Z 27008KT 31/M01 A2983 RMK A01 T03121006  RH  013%=      5-min Rain = 0
KDC1 220202Z 27009KT 31/M01 A2983 RMK A01 T03111006  RH  013%=      5-min Rain = 0
KDC1 220203Z 27010KT 31/M01 A2983 RMK A01 T03111010  RH  013%=      5-min Rain = 0
KDC1 220204Z 27010KT 31/M01 A2983 RMK A01 T03121012  RH  012%=      5-min Rain = 0
KDC1 220205Z 27008KT 31/M01 A2983 RMK A01 T03131014  RH  012%=      5-min Rain = 0
KDC1 220206Z 27009KT 31/M01 A2983 RMK A01 T03131012  RH  012%=      5-min Rain = 0
KDC1 220207Z 27009KT 31/M01 A2983 RMK A01 T03111012  RH  012%=      5-min Rain = 0
KDC1 220208Z 27008KT 31/M01 A2983 RMK A01 T03111011  RH  013%=      5-min Rain = 0
KDC1 220209Z 26008KT 31/M01 A2983 RMK A01 T03091009  RH  013%=      5-min Rain = 0
KDC1 220210Z 26008KT 31/M01 A2983 RMK A01 T03081007  RH  013%=      5-min Rain = 0
KDC1 220211Z 26008KT 31/M01 A2983 RMK A01 T03071007  RH  013%=      5-min Rain = 0
KDC1 220212Z 27008KT 31/M01 A2983 RMK A01 T03071005  RH  013%=      5-min Rain = 0
KDC1 220213Z 27008KT 31/M00 A2984 RMK A01 T03061004  RH  014%=      5-min Rain = 0
KDC1 220214Z 27008KT 30/M00 A2984 RMK A01 T03041003  RH  014%=      5-min Rain = 0
KDC1 220215Z 27008KT 30/M00 A2984 RMK A01 T03021002  RH  014%=      5-min Rain = 0
KDC1 220216Z 27008KT 30/00 A2984 RMK A01 T030000-0  RH  014%=      5-min Rain = 0
KDC1 220217Z 27007KT 30/M00 A2984 RMK A01 T02971001  RH  015%=      5-min Rain = 0
KDC1 220218Z 27007KT 30/M00 A2984 RMK A01 T02951002  RH  015%=      5-min Rain = 0
KDC1 220219Z 27006KT 29/M00 A2984 RMK A01 T02931004  RH  015%=      5-min Rain = 0
KDC1 220220Z 26006KT 29/M01 A2984 RMK A01 T02921005  RH  015%=      5-min Rain = 0
KDC1 220221Z 26006KT 29/M01 A2984 RMK A01 T02911005  RH  015%=      5-min Rain = 0
KDC1 220222Z 27006KT 29/M00 A2984 RMK A01 T02931002  RH  015%=      5-min Rain = 0
KDC1 220223Z 27007KT 29/M00 A2984 RMK A01 T02921001  RH  015%=      5-min Rain = 0
KDC1 220224Z 26007KT 29/00 A2984 RMK A01 T02920002  RH  015%=      5-min Rain = 0
KDC1 220225Z 27006KT 29/00 A2984 RMK A01 T02900001  RH  015%=      5-min Rain = 0
KDC1 220226Z 26006KT 29/00 A2984 RMK A01 T02910001  RH  015%=      5-min Rain = 0
KDC1 220227Z 26006KT 29/00 A2984 RMK A01 T02900003  RH  016%=      5-min Rain = 0
KDC1 220228Z 27006KT 29/01 A2984 RMK A01 T02900005  RH  016%=      5-min Rain = 0
KDC1 220229Z 27007KT 29/01 A2984 RMK A01 T02880007  RH  016%=      5-min Rain = 0
KDC1 220230Z 27006KT 29/01 A2984 RMK A01 T02860008  RH  017%=      5-min Rain = 0
KDC1 220231Z 27006KT 28/01 A2984 RMK A01 T02830014  RH  018%=      5-min Rain = 0
KDC1 220232Z 28006KT 28/01 A2984 RMK A01 T02790014  RH  018%=      5-min Rain = 0
KDC1 220233Z 27006KT 28/01 A2984 RMK A01 T02750012  RH  018%=      5-min Rain = 0
KDC1 220234Z 27006KT 27/01 A2984 RMK A01 T02710011  RH  018%=      5-min Rain = 0
KDC1 220235Z 27006KT 27/01 A2984 RMK A01 T02690011  RH  019%=      5-min Rain = 0
KDC1 220236Z 27006KT 27/01 A2985 RMK A01 T02670010  RH  019%=      5-min Rain = 0
KDC1 220237Z 26006KT 27/01 A2985 RMK A01 T02660008  RH  019%=      5-min Rain = 0
KDC1 220238Z 26006KT 27/01 A2985 RMK A01 T02660006  RH  018%=      5-min Rain = 0
KDC1 220239Z 26005KT 27/00 A2985 RMK A01 T02650003  RH  018%=      5-min Rain = 0
KDC1 220240Z 26005KT 27/00 A2985 RMK A01 T02650003  RH  018%=      5-min Rain = 0
KDC1 220241Z 26005KT 26/00 A2985 RMK A01 T02640003  RH  018%=      5-min Rain = 0
KDC1 220242Z 27005KT 26/00 A2985 RMK A01 T02630004  RH  018%=      5-min Rain = 0
KDC1 220243Z 26005KT 26/01 A2985 RMK A01 T02620005  RH  019%=      5-min Rain = 0
KDC1 220244Z 26005KT 26/01 A2985 RMK A01 T02620005  RH  019%=      5-min Rain = 0
KDC1 220245Z 26005KT 26/00 A2985 RMK A01 T02620002  RH  018%=      5-min Rain = 0
KDC1 220246Z 26005KT 26/00 A2985 RMK A01 T02640000  RH  018%=      5-min Rain = 0
KDC1 220247Z 26004KT 27/00 A2985 RMK A01 T02680002  RH  018%=      5-min Rain = 0
KDC1 220248Z 26004KT 27/01 A2985 RMK A01 T02680007  RH  018%=      5-min Rain = 0
KDC1 220249Z 26004KT 27/01 A2985 RMK A01 T02660007  RH  018%=      5-min Rain = 0
KDC1 220250Z 26004KT 27/01 A2986 RMK A01 T02650007  RH  019%=      5-min Rain = 0
KDC1 220251Z 26004KT 26/01 A2986 RMK A01 T02630007  RH  019%=      5-min Rain = 0
KDC1 220252Z 25004KT 26/01 A2986 RMK A01 T02620008  RH  019%=      5-min Rain = 0
KDC1 220253Z 25004KT 26/01 A2986 RMK A01 T02600008  RH  019%=      5-min Rain = 0
KDC1 220254Z 25004KT 26/01 A2986 RMK A01 T02590008  RH  019%=      5-min Rain = 0
KDC1 220255Z 25004KT 26/01 A2986 RMK A01 T02580010  RH  020%=      5-min Rain = 0
KDC1 220256Z 24003KT 26/01 A2986 RMK A01 T02570010  RH  020%=      5-min Rain = 0
KDC1 220257Z 25003KT 26/02 A2986 RMK A01 T02560024  RH  022%=      5-min Rain = 0
KDC1 220258Z 25004KT 26/02 A2986 RMK A01 T02560023  RH  022%=      5-min Rain = 0
KDC1 220259Z 25004KT 26/02 A2986 RMK A01 T02570017  RH  021%=      5-min Rain = 0
KDC1 220300Z 25003KT 26/02 A2986 RMK A01 T02580018  RH  021%=      5-min Rain = 0
KDC1 220301Z 25003KT 26/03 A2986 RMK A01 T02580027  RH  022%=      5-min Rain = 0
KDC1 220302Z 25004KT 26/03 A2986 RMK A01 T02580028  RH  022%=      5-min Rain = 0
KDC1 220303Z 25004KT 26/04 A2986 RMK A01 T02580037  RH  024%=      5-min Rain = 0
KDC1 220304Z 25004KT 26/04 A2986 RMK A01 T02580036  RH  024%=      5-min Rain = 0
KDC1 220305Z 26004KT 26/03 A2986 RMK A01 T02570028  RH  023%=      5-min Rain = 0
KDC1 220306Z 26004KT 26/02 A2986 RMK A01 T02570023  RH  022%=      5-min Rain = 0
KDC1 220307Z 25004KT 26/02 A2986 RMK A01 T02570022  RH  022%=      5-min Rain = 0
KDC1 220308Z 25003KT 26/03 A2986 RMK A01 T02570028  RH  023%=      5-min Rain = 0
KDC1 220309Z 25003KT 26/04 A2986 RMK A01 T02560040  RH  025%=      5-min Rain = 0
KDC1 220310Z 24004KT 26/04 A2986 RMK A01 T02550044  RH  026%=      5-min Rain = 0
KDC1 220311Z 24003KT 25/05 A2986 RMK A01 T02530048  RH  027%=      5-min Rain = 0
KDC1 220312Z 23003KT 25/04 A2986 RMK A01 T02520035  RH  024%=      5-min Rain = 0
KDC1 220313Z 24002KT 25/03 A2986 RMK A01 T02520030  RH  024%=      5-min Rain = 0
KDC1 220314Z 23002KT 25/05 A2986 RMK A01 T02520046  RH  026%=      5-min Rain = 0
KDC1 220315Z 24003KT 25/04 A2986 RMK A01 T02500041  RH  026%=      5-min Rain = 0
KDC1 220316Z 24004KT 25/05 A2986 RMK A01 T02480046  RH  027%=      5-min Rain = 0
KDC1 220317Z 24004KT 25/05 A2986 RMK A01 T02460047  RH  028%=      5-min Rain = 0
KDC1 220318Z 24004KT 25/05 A2986 RMK A01 T02450049  RH  028%=      5-min Rain = 0
KDC1 220319Z 25004KT 24/05 A2986 RMK A01 T02440046  RH  028%=      5-min Rain = 0
KDC1 220320Z 26004KT 24/04 A2986 RMK A01 T02440043  RH  027%=      5-min Rain = 0
KDC1 220321Z 26005KT 24/04 A2986 RMK A01 T02440040  RH  027%=      5-min Rain = 0
KDC1 220322Z 25004KT 24/03 A2986 RMK A01 T02430034  RH  026%=      5-min Rain = 0
KDC1 220323Z 26005KT 24/03 A2986 RMK A01 T02430026  RH  024%=      5-min Rain = 0
KDC1 220324Z 28004KT 25/03 A2986 RMK A01 T02450033  RH  025%=      5-min Rain = 0
KDC1 220325Z 28004KT 24/02 A2986 RMK A01 T02430023  RH  024%=      5-min Rain = 0
KDC1 220326Z 28003KT 24/02 A2986 RMK A01 T02400023  RH  024%=      5-min Rain = 0
KDC1 220327Z 28004KT 24/03 A2986 RMK A01 T02360026  RH  025%=      5-min Rain = 0
KDC1 220328Z 27005KT 23/03 A2986 RMK A01 T02330025  RH  026%=      5-min Rain = 0
KDC1 220329Z 27006KT 23/03 A2986 RMK A01 T02300025  RH  026%=      5-min Rain = 0
KDC1 220330Z 29007KT 23/03 A2986 RMK A01 T02280026  RH  027%=      5-min Rain = 0
KDC1 220331Z 29007KT 23/03 A2986 RMK A01 T02270029  RH  027%=      5-min Rain = 0
KDC1 220332Z 29008KT 23/03 A2986 RMK A01 T02260027  RH  027%=      5-min Rain = 0
KDC1 220333Z 28008KT 23/02 A2986 RMK A01 T02270019  RH  025%=      5-min Rain = 0
KDC1 220334Z 28007KT 23/02 A2986 RMK A01 T02290016  RH  024%=      5-min Rain = 0
KDC1 220335Z 27008KT 23/01 A2986 RMK A01 T02300013  RH  024%=      5-min Rain = 0
KDC1 220336Z 27008KT 23/01 A2986 RMK A01 T02310012  RH  024%=      5-min Rain = 0
KDC1 220337Z 27007KT 23/01 A2986 RMK A01 T02320010  RH  023%=      5-min Rain = 0
KDC1 220338Z 27007KT 23/01 A2986 RMK A01 T02320010  RH  023%=      5-min Rain = 0
KDC1 220339Z 27007KT 23/01 A2986 RMK A01 T02320009  RH  023%=      5-min Rain = 0
KDC1 220340Z 27007KT 23/01 A2986 RMK A01 T02320009  RH  023%=      5-min Rain = 0
KDC1 220341Z 27007KT 23/01 A2986 RMK A01 T02310008  RH  023%=      5-min Rain = 0
KDC1 220342Z 27006KT 23/01 A2986 RMK A01 T02310007  RH  023%=      5-min Rain = 0
KDC1 220343Z 27006KT 23/01 A2986 RMK A01 T02320006  RH  022%=      5-min Rain = 0
KDC1 220344Z 28007KT 23/01 A2986 RMK A01 T02330006  RH  022%=      5-min Rain = 0
KDC1 220345Z 28008KT 23/01 A2986 RMK A01 T02340006  RH  022%=      5-min Rain = 0
KDC1 220346Z 28008KT 23/01 A2986 RMK A01 T02340008  RH  022%=      5-min Rain = 0
KDC1 220347Z 27008KT 23/01 A2986 RMK A01 T02340008  RH  023%=      5-min Rain = 0
KDC1 220348Z 27008KT 23/01 A2986 RMK A01 T02340009  RH  023%=      5-min Rain = 0
KDC1 220349Z 27008KT 23/01 A2986 RMK A01 T02330009  RH  023%=      5-min Rain = 0
KDC1 220350Z 27007KT 23/01 A2986 RMK A01 T02330009  RH  023%=      5-min Rain = 0
KDC1 220351Z 27008KT 23/01 A2986 RMK A01 T02330009  RH  023%=      5-min Rain = 0
KDC1 220352Z 27007KT 23/01 A2986 RMK A01 T02330009  RH  023%=      5-min Rain = 0
KDC1 220353Z 27007KT 23/01 A2986 RMK A01 T02330007  RH  023%=      5-min Rain = 0
KDC1 220354Z 27007KT 23/01 A2986 RMK A01 T02340006  RH  022%=      5-min Rain = 0
KDC1 220355Z 27006KT 23/01 A2986 RMK A01 T02340006  RH  022%=      5-min Rain = 0
KDC1 220356Z 27006KT 24/01 A2986 RMK A01 T02350005  RH  022%=      5-min Rain = 0
KDC1 220357Z 27006KT 24/00 A2987 RMK A01 T02350004  RH  022%=      5-min Rain = 0
KDC1 220358Z 27006KT 24/00 A2987 RMK A01 T02360004  RH  022%=      5-min Rain = 0
KDC1 220359Z 27007KT 24/00 A2987 RMK A01 T02360004  RH  022%=      5-min Rain = 0
KDC1 220400Z 28006KT 24/00 A2987 RMK A01 T02350003  RH  022%=      5-min Rain = 0
KDC1 220401Z 28006KT 24/00 A2987 RMK A01 T02350003  RH  022%=      5-min Rain = 0
KDC1 220402Z 28006KT 24/01 A2987 RMK A01 T02350006  RH  022%=      5-min Rain = 0
KDC1 220403Z 27008KT 23/01 A2987 RMK A01 T02340008  RH  023%=      5-min Rain = 0
KDC1 220404Z 27007KT 23/01 A2987 RMK A01 T02320007  RH  023%=      5-min Rain = 0
KDC1 220405Z 27006KT 23/01 A2987 RMK A01 T02310006  RH  023%=      5-min Rain = 0
KDC1 220406Z 27007KT 23/01 A2987 RMK A01 T02310007  RH  023%=      5-min Rain = 0
KDC1 220407Z 28007KT 23/01 A2987 RMK A01 T02310007  RH  023%=      5-min Rain = 0
KDC1 220408Z 28007KT 23/01 A2987 RMK A01 T02300008  RH  023%=      5-min Rain = 0
KDC1 220409Z 28007KT 23/01 A2987 RMK A01 T02300008  RH  023%=      5-min Rain = 0
KDC1 220410Z 28006KT 23/01 A2987 RMK A01 T02290009  RH  023%=      5-min Rain = 0
KDC1 220411Z 28007KT 23/01 A2987 RMK A01 T02290010  RH  024%=      5-min Rain = 0
KDC1 220412Z 28007KT 23/01 A2987 RMK A01 T02280011  RH  024%=      5-min Rain = 0
KDC1 220413Z 28007KT 23/01 A2987 RMK A01 T02270012  RH  024%=      5-min Rain = 0
KDC1 220414Z 28007KT 23/01 A2987 RMK A01 T02260012  RH  024%=      5-min Rain = 0
KDC1 220415Z 27007KT 23/01 A2987 RMK A01 T02250013  RH  025%=      5-min Rain = 0
KDC1 220416Z 28007KT 22/01 A2987 RMK A01 T02240013  RH  025%=      5-min Rain = 0
KDC1 220417Z 28007KT 22/01 A2987 RMK A01 T02230013  RH  025%=      5-min Rain = 0
KDC1 220418Z 28007KT 22/01 A2987 RMK A01 T02220013  RH  025%=      5-min Rain = 0
KDC1 220419Z 28007KT 22/01 A2987 RMK A01 T02210013  RH  025%=      5-min Rain = 0
KDC1 220420Z 28007KT 22/01 A2987 RMK A01 T02210013  RH  025%=      5-min Rain = 0
KDC1 220421Z 27007KT 22/01 A2987 RMK A01 T02210012  RH  025%=      5-min Rain = 0
KDC1 220422Z 27007KT 22/01 A2987 RMK A01 T02210012  RH  025%=      5-min Rain = 0
KDC1 220423Z 27007KT 22/01 A2987 RMK A01 T02200011  RH  025%=      5-min Rain = 0
KDC1 220424Z 27008KT 22/01 A2987 RMK A01 T02200010  RH  025%=      5-min Rain = 0
KDC1 220425Z 27007KT 22/01 A2987 RMK A01 T02200009  RH  025%=      5-min Rain = 0
KDC1 220426Z 26008KT 22/01 A2987 RMK A01 T02190007  RH  024%=      5-min Rain = 0
KDC1 220427Z 27008KT 22/01 A2987 RMK A01 T02200005  RH  024%=      5-min Rain = 0
KDC1 220428Z 27007KT 22/00 A2987 RMK A01 T02210003  RH  024%=      5-min Rain = 0
KDC1 220429Z 27007KT 22/00 A2987 RMK A01 T02220002  RH  023%=      5-min Rain = 0
KDC1 220430Z 27007KT 22/00 A2987 RMK A01 T02230001  RH  023%=      5-min Rain = 0
KDC1 220431Z 26007KT 23/M00 A2987 RMK A01 T02261001  RH  022%=      5-min Rain = 0
KDC1 220432Z 27008KT 23/M00 A2987 RMK A01 T02301004  RH  021%=      5-min Rain = 0
KDC1 220433Z 26008KT 24/M00 A2987 RMK A01 T02351003  RH  021%=      5-min Rain = 0
KDC1 220434Z 26009KT 24/M00 A2987 RMK A01 T02391002  RH  020%=      5-min Rain = 0
KDC1 220435Z 26009KT 24/M00 A2987 RMK A01 T02401001  RH  020%=      5-min Rain = 0
KDC1 220436Z 26008KT 24/M00 A2987 RMK A01 T02411001  RH  020%=      5-min Rain = 0
KDC1 220437Z 27009KT 24/M00 A2987 RMK A01 T02411002  RH  020%=      5-min Rain = 0
KDC1 220438Z 27008KT 24/M00 A2987 RMK A01 T02411002  RH  020%=      5-min Rain = 0
KDC1 220439Z 27007KT 24/M00 A2987 RMK A01 T02391003  RH  020%=      5-min Rain = 0
KDC1 220440Z 27007KT 24/00 A2987 RMK A01 T02360001  RH  021%=      5-min Rain = 0
KDC1 220441Z 26008KT 23/M00 A2987 RMK A01 T02331001  RH  021%=      5-min Rain = 0
KDC1 220442Z 26009KT 23/M01 A2987 RMK A01 T02321006  RH  021%=      5-min Rain = 0
KDC1 220443Z 27008KT 24/M01 A2987 RMK A01 T02361006  RH  020%=      5-min Rain = 0
KDC1 220444Z 29007KT 24/M00 A2988 RMK A01 T02371003  RH  020%=      5-min Rain = 0
KDC1 220445Z 26010KT 23/M01 A2988 RMK A01 T02331005  RH  021%=      5-min Rain = 0
KDC1 220446Z 27010KT 23/M01 A2988 RMK A01 T02331010  RH  020%=      5-min Rain = 0
KDC1 220447Z 27009KT 23/M01 A2988 RMK A01 T02341010  RH  020%=      5-min Rain = 0
KDC1 220448Z 26009KT 24/M01 A2988 RMK A01 T02351009  RH  020%=      5-min Rain = 0
KDC1 220449Z 26009KT 24/M01 A2988 RMK A01 T02351010  RH  020%=      5-min Rain = 0
KDC1 220450Z 26008KT 24/M01 A2988 RMK A01 T02371012  RH  019%=      5-min Rain = 0
KDC1 220451Z 26009KT 24/M01 A2988 RMK A01 T02391013  RH  019%=      5-min Rain = 0
KDC1 220452Z 26008KT 24/M01 A2988 RMK A01 T02411013  RH  019%=      5-min Rain = 0
KDC1 220453Z 26009KT 24/M01 A2988 RMK A01 T02421012  RH  019%=      5-min Rain = 0
KDC1 220454Z 26009KT 24/M01 A2988 RMK A01 T02421012  RH  019%=      5-min Rain = 0
KDC1 220455Z 26010KT 25/M01 A2988 RMK A01 T02451011  RH  018%=      5-min Rain = 0
KDC1 220456Z 26009KT 25/M01 A2988 RMK A01 T02471010  RH  018%=      5-min Rain = 0
KDC1 220457Z 26010KT 25/M01 A2988 RMK A01 T02491010  RH  018%=      5-min Rain = 0
KDC1 220458Z 26010KT 25/M01 A2988 RMK A01 T02501010  RH  018%=      5-min Rain = 0
KDC1 220459Z 26009KT 25/M01 A2988 RMK A01 T02511010  RH  018%=      5-min Rain = 0

Page generated in 0.0726 seconds.